Time,TemperatureF,DewpointF,PressureIn,WindDirection,WindDirectionDegrees,WindSpeedMPH,WindSpeedGustMPH,Humidity,HourlyPrecipIn,Conditions,Clouds,dailyrainin,SoftwareType,DateUTC
2013-01-16 00:01:00,38.1,18.1,30.56,ENE,64,8.3,8.7,44,0.00,,---,0.00,VWS V14.01,2013-01-16 08:01:00,
2013-01-16 00:06:00,38.1,18.1,30.56,ENE,75,8.1,8.1,44,0.00,,---,0.00,VWS V14.01,2013-01-16 08:06:00,
2013-01-16 00:10:00,38.1,18.1,30.56,ENE,72,8.1,8.1,44,0.00,,---,0.00,VWS V14.01,2013-01-16 08:10:00,
2013-01-16 00:11:00,38.1,18.1,30.56,ENE,76,5.8,8.1,44,0.00,,---,0.00,VWS V14.01,2013-01-16 08:11:00,
2013-01-16 00:14:00,38.1,18.1,30.56,ENE,66,3.1,5.4,44,0.00,,---,0.00,VWS V14.01,2013-01-16 08:14:00,
2013-01-16 00:17:00,38.1,18.1,30.56,East,83,5.4,6.3,44,0.00,,---,0.00,VWS V14.01,2013-01-16 08:17:00,
2013-01-16 00:19:00,38.1,18.1,30.56,ENE,69,5.4,8.1,44,0.00,,---,0.00,VWS V14.01,2013-01-16 08:19:00,
2013-01-16 00:20:00,38.1,18.1,30.56,NE,48,3.6,5.4,44,0.00,,---,0.00,VWS V14.01,2013-01-16 08:20:00,
2013-01-16 00:24:00,38.1,18.1,30.56,NE,43,8.3,8.3,44,0.00,,---,0.00,VWS V14.01,2013-01-16 08:24:00,
2013-01-16 00:25:00,38.1,18.1,30.56,NE,46,5.4,8.3,44,0.00,,---,0.00,VWS V14.01,2013-01-16 08:25:00,
2013-01-16 00:26:00,38.1,18.1,30.56,ENE,77,3.1,5.8,44,0.00,,---,0.00,VWS V14.01,2013-01-16 08:26:00,
2013-01-16 00:29:00,38.1,18.1,30.56,NE,52,5.4,7.2,44,0.00,,---,0.00,VWS V14.01,2013-01-16 08:29:00,
2013-01-16 00:30:00,38.1,18.1,30.56,NNE,32,5.8,5.8,44,0.00,,---,0.00,VWS V14.01,2013-01-16 08:30:00,
2013-01-16 00:31:00,38.1,18.1,30.56,ENE,57,6.3,6.3,44,0.00,,---,0.00,VWS V14.01,2013-01-16 08:31:00,
2013-01-16 00:34:00,38.1,18.1,30.56,NE,49,6.3,7.6,44,0.00,,---,0.00,VWS V14.01,2013-01-16 08:34:00,
2013-01-16 00:35:00,38.1,18.1,30.56,ENE,59,4.9,6.3,44,0.00,,---,0.00,VWS V14.01,2013-01-16 08:35:00,
2013-01-16 00:37:00,37.9,18.0,30.56,NE,55,7.6,7.6,44,0.00,,---,0.00,VWS V14.01,2013-01-16 08:37:00,
2013-01-16 00:38:00,37.9,18.0,30.56,ENE,71,5.4,7.6,44,0.00,,---,0.00,VWS V14.01,2013-01-16 08:38:00,
2013-01-16 00:41:00,37.9,18.0,30.56,ENE,60,3.1,6.3,44,0.00,,---,0.00,VWS V14.01,2013-01-16 08:41:00,
2013-01-16 00:43:00,37.9,18.0,30.56,ENE,68,4.0,5.4,44,0.00,,---,0.00,VWS V14.01,2013-01-16 08:43:00,
2013-01-16 00:46:00,37.9,18.0,30.56,NNE,26,5.4,7.2,44,0.00,,---,0.00,VWS V14.01,2013-01-16 08:46:00,
2013-01-16 00:47:00,37.9,18.0,30.56,NE,54,5.8,5.8,44,0.00,,---,0.00,VWS V14.01,2013-01-16 08:47:00,
2013-01-16 00:49:00,37.9,18.0,30.56,ENE,57,4.0,4.9,44,0.00,,---,0.00,VWS V14.01,2013-01-16 08:49:00,
2013-01-16 00:52:00,37.8,17.8,30.56,NE,41,2.7,3.6,44,0.00,,---,0.00,VWS V14.01,2013-01-16 08:52:00,
2013-01-16 00:53:00,37.8,17.8,30.56,NE,41,2.7,2.7,44,0.00,,---,0.00,VWS V14.01,2013-01-16 08:53:00,
2013-01-16 00:55:00,37.8,17.8,30.56,NE,46,4.9,4.9,44,0.00,,---,0.00,VWS V14.01,2013-01-16 08:55:00,
2013-01-16 00:57:00,37.8,17.8,30.56,ENE,68,4.0,4.9,44,0.00,,---,0.00,VWS V14.01,2013-01-16 08:57:00,
2013-01-16 01:00:00,37.8,17.8,30.56,NE,49,3.1,3.1,44,0.00,,---,0.00,VWS V14.01,2013-01-16 09:00:00,
2013-01-16 01:01:00,37.8,17.8,30.56,NNE,19,5.8,5.8,44,0.00,,---,0.00,VWS V14.01,2013-01-16 09:01:00,
2013-01-16 01:02:00,37.8,17.8,30.56,ENE,75,5.8,5.8,44,0.00,,---,0.00,VWS V14.01,2013-01-16 09:02:00,
2013-01-16 01:03:00,37.8,17.8,30.56,ENE,68,3.6,5.8,44,0.00,,---,0.00,VWS V14.01,2013-01-16 09:03:00,
2013-01-16 01:06:00,37.8,18.3,30.56,ENE,61,5.8,5.8,45,0.00,,---,0.00,VWS V14.01,2013-01-16 09:06:00,
2013-01-16 01:07:00,37.8,18.3,30.56,ENE,69,5.4,5.8,45,0.00,,---,0.00,VWS V14.01,2013-01-16 09:07:00,
2013-01-16 01:09:00,37.8,18.3,30.56,NE,51,4.0,5.4,45,0.00,,---,0.00,VWS V14.01,2013-01-16 09:09:00,
2013-01-16 01:11:00,37.8,18.3,30.56,ENE,65,4.9,4.9,45,0.00,,---,0.00,VWS V14.01,2013-01-16 09:11:00,
2013-01-16 01:12:00,37.8,18.3,30.56,ENE,77,5.4,5.4,45,0.00,,---,0.00,VWS V14.01,2013-01-16 09:12:00,
2013-01-16 01:16:00,37.8,18.3,30.56,ENE,67,2.2,4.0,45,0.00,,---,0.00,VWS V14.01,2013-01-16 09:16:00,
2013-01-16 01:17:00,37.8,18.3,30.56,NE,35,2.2,2.2,45,0.00,,---,0.00,VWS V14.01,2013-01-16 09:17:00,
2013-01-16 01:18:00,37.8,18.3,30.56,NE,38,2.7,2.7,45,0.00,,---,0.00,VWS V14.01,2013-01-16 09:18:00,
2013-01-16 01:23:00,37.8,18.3,30.56,NNE,31,5.8,5.8,45,0.00,,---,0.00,VWS V14.01,2013-01-16 09:23:00,
2013-01-16 01:24:00,37.8,18.3,30.56,NE,41,0.0,5.8,45,0.00,,---,0.00,VWS V14.01,2013-01-16 09:24:00,
2013-01-16 01:25:00,37.8,18.3,30.56,NE,42,6.3,6.3,45,0.00,,---,0.00,VWS V14.01,2013-01-16 09:25:00,
2013-01-16 01:30:00,37.8,18.3,30.56,NE,38,3.6,4.0,45,0.00,,---,0.00,VWS V14.01,2013-01-16 09:30:00,
2013-01-16 01:31:00,37.8,18.3,30.56,ENE,70,2.7,3.6,45,0.00,,---,0.00,VWS V14.01,2013-01-16 09:31:00,
2013-01-16 01:32:00,37.8,18.3,30.56,NE,43,4.9,4.9,45,0.00,,---,0.00,VWS V14.01,2013-01-16 09:32:00,
2013-01-16 01:35:00,37.8,18.3,30.56,ENE,74,5.8,5.8,45,0.00,,---,0.00,VWS V14.01,2013-01-16 09:35:00,
2013-01-16 01:37:00,37.9,18.5,30.56,NNE,23,2.2,2.2,45,0.00,,---,0.00,VWS V14.01,2013-01-16 09:37:00,
2013-01-16 01:42:00,37.9,18.5,30.56,NNE,20,0.0,3.1,45,0.00,,---,0.00,VWS V14.01,2013-01-16 09:42:00,
2013-01-16 01:43:00,37.9,18.5,30.56,NNE,21,3.1,3.1,45,0.00,,---,0.00,VWS V14.01,2013-01-16 09:43:00,
2013-01-16 01:44:00,37.9,18.5,30.56,North,357,2.7,3.6,45,0.00,,---,0.00,VWS V14.01,2013-01-16 09:44:00,
2013-01-16 01:45:00,37.9,18.5,30.56,NNE,30,4.0,4.0,45,0.00,,---,0.00,VWS V14.01,2013-01-16 09:45:00,
2013-01-16 01:49:00,37.8,18.3,30.56,NE,34,2.7,5.8,45,0.00,,---,0.00,VWS V14.01,2013-01-16 09:49:00,
2013-01-16 01:51:00,37.8,18.3,30.56,NNE,26,3.1,3.1,45,0.00,,---,0.00,VWS V14.01,2013-01-16 09:51:00,
2013-01-16 01:54:00,37.8,18.3,30.56,NE,55,2.2,2.2,45,0.00,,---,0.00,VWS V14.01,2013-01-16 09:54:00,
2013-01-16 01:57:00,37.8,18.3,30.56,ENE,63,3.1,5.8,45,0.00,,---,0.00,VWS V14.01,2013-01-16 09:57:00,
2013-01-16 01:59:00,37.8,18.3,30.56,East,83,4.0,4.9,45,0.00,,---,0.00,VWS V14.01,2013-01-16 09:59:00,
2013-01-16 02:00:00,37.8,18.3,30.56,ENE,72,2.7,4.0,45,0.00,,---,0.00,VWS V14.01,2013-01-16 10:00:00,
2013-01-16 02:01:00,37.8,18.3,30.56,ENE,68,4.0,4.0,45,0.00,,---,0.00,VWS V14.01,2013-01-16 10:01:00,
2013-01-16 02:04:00,37.8,18.3,30.56,ENE,71,2.2,2.2,45,0.00,,---,0.00,VWS V14.01,2013-01-16 10:04:00,
2013-01-16 02:06:00,37.8,18.3,30.56,ENE,69,6.3,6.3,45,0.00,,---,0.00,VWS V14.01,2013-01-16 10:06:00,
2013-01-16 02:07:00,37.9,18.5,30.56,ENE,71,5.8,6.3,45,0.00,,---,0.00,VWS V14.01,2013-01-16 10:07:00,
2013-01-16 02:09:00,37.9,18.5,30.56,NE,39,3.6,4.0,45,0.00,,---,0.00,VWS V14.01,2013-01-16 10:09:00,
2013-01-16 02:12:00,37.9,18.5,30.56,NE,38,3.6,3.6,45,0.00,,---,0.00,VWS V14.01,2013-01-16 10:12:00,
2013-01-16 02:13:00,37.9,18.5,30.56,East,93,6.3,6.3,45,0.00,,---,0.00,VWS V14.01,2013-01-16 10:13:00,
2013-01-16 02:16:00,37.9,18.5,30.56,East,81,6.3,6.3,45,0.00,,---,0.00,VWS V14.01,2013-01-16 10:16:00,
2013-01-16 02:18:00,37.9,18.5,30.56,ENE,69,4.9,5.8,45,0.00,,---,0.00,VWS V14.01,2013-01-16 10:18:00,
2013-01-16 02:20:00,37.9,18.5,30.56,NE,37,3.1,3.1,45,0.00,,---,0.00,VWS V14.01,2013-01-16 10:20:00,
2013-01-16 02:23:00,37.9,18.5,30.56,ENE,69,5.4,5.4,45,0.00,,---,0.00,VWS V14.01,2013-01-16 10:23:00,
2013-01-16 02:25:00,37.9,18.5,30.56,East,83,3.1,5.4,45,0.00,,---,0.00,VWS V14.01,2013-01-16 10:25:00,
2013-01-16 02:26:00,37.9,18.5,30.56,NE,41,3.1,3.1,45,0.00,,---,0.00,VWS V14.01,2013-01-16 10:26:00,
2013-01-16 02:29:00,37.9,18.0,30.56,East,83,3.1,4.0,44,0.00,,---,0.00,VWS V14.01,2013-01-16 10:29:00,
2013-01-16 02:31:00,37.9,18.0,30.56,NE,47,2.7,3.6,44,0.00,,---,0.00,VWS V14.01,2013-01-16 10:31:00,
2013-01-16 02:33:00,38.1,18.1,30.56,East,92,5.4,5.4,44,0.00,,---,0.00,VWS V14.01,2013-01-16 10:33:00,
2013-01-16 02:34:00,38.1,18.1,30.56,ENE,58,5.8,5.8,44,0.00,,---,0.00,VWS V14.01,2013-01-16 10:34:00,
2013-01-16 02:37:00,38.1,18.7,30.56,ENE,77,5.4,5.4,45,0.00,,---,0.00,VWS V14.01,2013-01-16 10:37:00,
2013-01-16 02:39:00,38.1,18.7,30.56,ENE,70,2.7,4.9,45,0.00,,---,0.00,VWS V14.01,2013-01-16 10:39:00,
2013-01-16 02:40:00,38.1,18.7,30.56,ENE,78,5.4,5.4,45,0.00,,---,0.00,VWS V14.01,2013-01-16 10:40:00,
2013-01-16 02:44:00,38.1,18.1,30.56,ENE,75,3.1,3.1,44,0.00,,---,0.00,VWS V14.01,2013-01-16 10:44:00,
2013-01-16 02:45:00,38.1,18.1,30.56,East,95,3.1,3.1,44,0.00,,---,0.00,VWS V14.01,2013-01-16 10:45:00,
2013-01-16 02:47:00,38.1,18.1,30.56,ENE,61,2.7,4.9,44,0.00,,---,0.00,VWS V14.01,2013-01-16 10:47:00,
2013-01-16 02:50:00,38.1,18.1,30.56,ENE,60,0.0,3.6,44,0.00,,---,0.00,VWS V14.01,2013-01-16 10:50:00,
2013-01-16 02:51:00,38.1,18.1,30.56,NE,53,0.0,0.0,44,0.00,,---,0.00,VWS V14.01,2013-01-16 10:51:00,
2013-01-16 02:52:00,38.1,18.1,30.56,ENE,72,2.7,2.7,44,0.00,,---,0.00,VWS V14.01,2013-01-16 10:52:00,
2013-01-16 02:53:00,38.1,18.1,30.56,ENE,70,0.0,2.7,44,0.00,,---,0.00,VWS V14.01,2013-01-16 10:53:00,
2013-01-16 02:58:00,38.1,18.1,30.56,NE,49,0.0,0.0,44,0.00,,---,0.00,VWS V14.01,2013-01-16 10:58:00,
2013-01-16 02:59:00,38.1,18.1,30.56,NNE,27,0.0,2.2,44,0.00,,---,0.00,VWS V14.01,2013-01-16 10:59:00,
2013-01-16 03:00:00,38.1,18.1,30.56,NNE,28,0.0,0.0,44,0.00,,---,0.00,VWS V14.01,2013-01-16 11:00:00,
2013-01-16 03:03:00,38.1,18.1,30.56,NNE,28,0.0,0.0,44,0.00,,---,0.00,VWS V14.01,2013-01-16 11:03:00,
2013-01-16 03:04:00,38.1,18.1,30.56,NNE,28,0.0,0.0,44,0.00,,---,0.00,VWS V14.01,2013-01-16 11:04:00,
2013-01-16 03:06:00,38.1,18.7,30.56,NNE,28,0.0,0.0,45,0.00,,---,0.00,VWS V14.01,2013-01-16 11:06:00,
2013-01-16 03:09:00,38.1,18.7,30.56,NE,51,0.0,0.0,45,0.00,,---,0.00,VWS V14.01,2013-01-16 11:09:00,
2013-01-16 03:10:00,38.1,18.7,30.56,NE,51,0.0,0.0,45,0.00,,---,0.00,VWS V14.01,2013-01-16 11:10:00,
2013-01-16 03:13:00,37.9,19.0,30.56,NE,51,0.0,0.0,46,0.00,,---,0.00,VWS V14.01,2013-01-16 11:13:00,
2013-01-16 03:14:00,37.9,19.0,30.56,NE,51,0.0,0.0,46,0.00,,---,0.00,VWS V14.01,2013-01-16 11:14:00,
2013-01-16 03:15:00,37.9,19.0,30.56,NE,51,0.0,0.0,46,0.00,,---,0.00,VWS V14.01,2013-01-16 11:15:00,
2013-01-16 03:17:00,37.9,19.0,30.56,NE,51,0.0,0.0,46,0.00,,---,0.00,VWS V14.01,2013-01-16 11:17:00,
2013-01-16 03:20:00,37.9,19.0,30.56,NE,51,0.0,0.0,46,0.00,,---,0.00,VWS V14.01,2013-01-16 11:20:00,
2013-01-16 03:22:00,37.9,19.0,30.56,NE,51,0.0,0.0,46,0.00,,---,0.00,VWS V14.01,2013-01-16 11:22:00,
2013-01-16 03:23:00,37.9,19.0,30.56,NE,51,0.0,0.0,46,0.00,,---,0.00,VWS V14.01,2013-01-16 11:23:00,
2013-01-16 03:27:00,37.9,19.0,30.56,NE,51,0.0,0.0,46,0.00,,---,0.00,VWS V14.01,2013-01-16 11:27:00,
2013-01-16 03:28:00,37.9,19.0,30.56,NE,51,0.0,0.0,46,0.00,,---,0.00,VWS V14.01,2013-01-16 11:28:00,
2013-01-16 03:30:00,37.9,19.0,30.56,NE,51,0.0,0.0,46,0.00,,---,0.00,VWS V14.01,2013-01-16 11:30:00,
2013-01-16 03:34:00,37.9,19.0,30.56,NE,51,0.0,0.0,46,0.00,,---,0.00,VWS V14.01,2013-01-16 11:34:00,
2013-01-16 03:37:00,37.8,18.9,30.56,NE,51,0.0,0.0,46,0.00,,---,0.00,VWS V14.01,2013-01-16 11:37:00,
2013-01-16 03:39:00,37.9,19.0,30.56,NE,51,0.0,0.0,46,0.00,,---,0.00,VWS V14.01,2013-01-16 11:39:00,
2013-01-16 03:41:00,37.9,19.0,30.56,NE,51,0.0,0.0,46,0.00,,---,0.00,VWS V14.01,2013-01-16 11:41:00,
2013-01-16 03:43:00,37.9,19.0,30.56,NE,51,0.0,0.0,46,0.00,,---,0.00,VWS V14.01,2013-01-16 11:43:00,
2013-01-16 03:44:00,37.9,19.0,30.56,NE,51,0.0,0.0,46,0.00,,---,0.00,VWS V14.01,2013-01-16 11:44:00,
2013-01-16 03:47:00,37.9,19.0,30.56,NE,51,0.0,0.0,46,0.00,,---,0.00,VWS V14.01,2013-01-16 11:47:00,
2013-01-16 03:49:00,37.9,18.0,30.56,NE,51,0.0,0.0,44,0.00,,---,0.00,VWS V14.01,2013-01-16 11:49:00,
2013-01-16 03:50:00,37.9,18.0,30.56,NE,51,0.0,0.0,44,0.00,,---,0.00,VWS V14.01,2013-01-16 11:50:00,
2013-01-16 03:54:00,37.9,18.0,30.56,NE,51,0.0,0.0,44,0.00,,---,0.00,VWS V14.01,2013-01-16 11:54:00,
2013-01-16 03:55:00,37.9,18.0,30.56,NE,51,0.0,0.0,44,0.00,,---,0.00,VWS V14.01,2013-01-16 11:55:00,
2013-01-16 03:56:00,37.9,18.0,30.56,NE,51,0.0,0.0,44,0.00,,---,0.00,VWS V14.01,2013-01-16 11:56:00,
2013-01-16 03:58:00,37.9,18.0,30.56,NE,51,0.0,0.0,44,0.00,,---,0.00,VWS V14.01,2013-01-16 11:58:00,
2013-01-16 03:59:00,37.9,18.0,30.56,NE,51,0.0,0.0,44,0.00,,---,0.00,VWS V14.01,2013-01-16 11:59:00,
2013-01-16 04:01:00,37.9,18.0,30.56,NE,51,0.0,0.0,44,0.00,,---,0.00,VWS V14.01,2013-01-16 12:01:00,
2013-01-16 04:03:00,37.9,18.0,30.56,NE,51,0.0,0.0,44,0.00,,---,0.00,VWS V14.01,2013-01-16 12:03:00,
2013-01-16 04:04:00,38.1,18.1,30.56,NE,51,0.0,0.0,44,0.00,,---,0.00,VWS V14.01,2013-01-16 12:04:00,
2013-01-16 04:10:00,38.1,18.1,30.56,NE,51,0.0,0.0,44,0.00,,---,0.00,VWS V14.01,2013-01-16 12:10:00,
2013-01-16 04:12:00,38.1,18.1,30.56,NE,51,0.0,0.0,44,0.00,,---,0.00,VWS V14.01,2013-01-16 12:12:00,
2013-01-16 04:13:00,38.1,18.7,30.56,NE,51,0.0,0.0,45,0.00,,---,0.00,VWS V14.01,2013-01-16 12:13:00,
2013-01-16 04:14:00,38.1,18.7,30.56,NE,51,0.0,0.0,45,0.00,,---,0.00,VWS V14.01,2013-01-16 12:14:00,
2013-01-16 04:17:00,38.1,18.7,30.56,NE,51,0.0,0.0,45,0.00,,---,0.00,VWS V14.01,2013-01-16 12:17:00,
2013-01-16 04:19:00,38.1,18.7,30.56,NE,51,0.0,0.0,45,0.00,,---,0.00,VWS V14.01,2013-01-16 12:19:00,
2013-01-16 04:20:00,38.1,18.7,30.56,NE,51,0.0,0.0,45,0.00,,---,0.00,VWS V14.01,2013-01-16 12:20:00,
2013-01-16 04:24:00,38.1,18.7,30.56,NE,51,0.0,0.0,45,0.00,,---,0.00,VWS V14.01,2013-01-16 12:24:00,
2013-01-16 04:26:00,38.1,18.7,30.56,NE,51,0.0,0.0,45,0.00,,---,0.00,VWS V14.01,2013-01-16 12:26:00,
2013-01-16 04:28:00,38.1,18.7,30.56,NE,51,0.0,0.0,45,0.00,,---,0.00,VWS V14.01,2013-01-16 12:28:00,
2013-01-16 04:30:00,38.1,18.7,30.56,NE,51,0.0,0.0,45,0.00,,---,0.00,VWS V14.01,2013-01-16 12:30:00,
2013-01-16 04:32:00,38.1,18.7,30.56,NE,51,0.0,0.0,45,0.00,,---,0.00,VWS V14.01,2013-01-16 12:32:00,
2013-01-16 04:35:00,38.1,18.7,30.56,NE,51,0.0,0.0,45,0.00,,---,0.00,VWS V14.01,2013-01-16 12:35:00,
2013-01-16 04:38:00,38.1,18.7,30.56,NE,51,0.0,0.0,45,0.00,,---,0.00,VWS V14.01,2013-01-16 12:38:00,
2013-01-16 04:40:00,38.1,18.7,30.56,NE,55,0.0,0.0,45,0.00,,---,0.00,VWS V14.01,2013-01-16 12:40:00,
2013-01-16 04:44:00,38.1,18.7,30.56,ENE,70,0.0,2.2,45,0.00,,---,0.00,VWS V14.01,2013-01-16 12:44:00,
2013-01-16 04:45:00,38.1,18.7,30.56,ENE,70,0.0,0.0,45,0.00,,---,0.00,VWS V14.01,2013-01-16 12:45:00,
2013-01-16 04:46:00,38.1,18.7,30.56,ENE,70,0.0,0.0,45,0.00,,---,0.00,VWS V14.01,2013-01-16 12:46:00,
2013-01-16 04:50:00,38.1,18.7,30.56,NE,48,0.0,0.0,45,0.00,,---,0.00,VWS V14.01,2013-01-16 12:50:00,
2013-01-16 04:51:00,38.1,18.7,30.56,NE,48,0.0,0.0,45,0.00,,---,0.00,VWS V14.01,2013-01-16 12:51:00,
2013-01-16 04:53:00,38.1,18.7,30.56,NE,47,0.0,0.0,45,0.00,,---,0.00,VWS V14.01,2013-01-16 12:53:00,
2013-01-16 04:57:00,38.1,18.7,30.56,NE,50,0.0,0.0,45,0.00,,---,0.00,VWS V14.01,2013-01-16 12:57:00,
2013-01-16 04:59:00,38.1,19.2,30.56,NE,50,0.0,0.0,46,0.00,,---,0.00,VWS V14.01,2013-01-16 12:59:00,
2013-01-16 05:00:00,38.1,19.2,30.56,NE,50,0.0,0.0,46,0.00,,---,0.00,VWS V14.01,2013-01-16 13:00:00,
2013-01-16 05:04:00,38.3,19.4,30.56,NE,50,2.2,2.7,46,0.00,,---,0.00,VWS V14.01,2013-01-16 13:04:00,
2013-01-16 05:06:00,38.3,19.4,30.56,NE,52,0.0,0.0,46,0.00,,---,0.00,VWS V14.01,2013-01-16 13:06:00,
2013-01-16 05:09:00,38.3,19.4,30.56,ENE,60,3.1,3.1,46,0.00,,---,0.00,VWS V14.01,2013-01-16 13:09:00,
2013-01-16 05:13:00,38.3,19.4,30.53,NE,46,0.0,0.0,46,0.00,,---,0.00,VWS V14.01,2013-01-16 13:13:00,
2013-01-16 05:15:00,38.5,20.0,30.53,NE,46,0.0,0.0,47,0.00,,---,0.00,VWS V14.01,2013-01-16 13:15:00,
2013-01-16 05:19:00,38.5,20.0,30.53,ENE,74,2.2,2.2,47,0.00,,---,0.00,VWS V14.01,2013-01-16 13:19:00,
2013-01-16 05:21:00,38.5,20.0,30.53,ENE,74,0.0,0.0,47,0.00,,---,0.00,VWS V14.01,2013-01-16 13:21:00,
2013-01-16 05:23:00,38.5,20.0,30.53,ENE,76,3.6,3.6,47,0.00,,---,0.00,VWS V14.01,2013-01-16 13:23:00,
2013-01-16 05:24:00,38.5,20.0,30.53,ENE,76,3.6,3.6,47,0.00,,---,0.00,VWS V14.01,2013-01-16 13:24:00,
2013-01-16 05:26:00,38.5,20.0,30.53,ENE,67,3.6,3.6,47,0.00,,---,0.00,VWS V14.01,2013-01-16 13:26:00,
2013-01-16 05:29:00,38.5,20.0,30.53,NE,52,2.7,2.7,47,0.00,,---,0.00,VWS V14.01,2013-01-16 13:29:00,
2013-01-16 05:31:00,38.5,20.0,30.53,NE,55,2.7,2.7,47,0.00,,---,0.00,VWS V14.01,2013-01-16 13:31:00,
2013-01-16 05:33:00,38.3,19.9,30.53,NE,45,0.0,0.0,47,0.00,,---,0.00,VWS V14.01,2013-01-16 13:33:00,
2013-01-16 05:38:00,38.5,20.5,30.53,NE,55,0.0,0.0,48,0.00,,---,0.00,VWS V14.01,2013-01-16 13:38:00,
2013-01-16 05:39:00,38.5,20.5,30.53,East,99,3.1,3.1,48,0.00,,---,0.00,VWS V14.01,2013-01-16 13:39:00,
2013-01-16 05:40:00,38.3,20.4,30.53,East,99,3.1,3.1,48,0.00,,---,0.00,VWS V14.01,2013-01-16 13:40:00,
2013-01-16 05:45:00,38.3,20.4,30.53,ENE,74,5.4,5.4,48,0.00,,---,0.00,VWS V14.01,2013-01-16 13:45:00,
2013-01-16 05:46:00,38.3,20.4,30.53,ENE,69,3.1,5.4,48,0.00,,---,0.00,VWS V14.01,2013-01-16 13:46:00,
2013-01-16 05:47:00,38.3,20.4,30.53,ENE,76,3.1,3.1,48,0.00,,---,0.00,VWS V14.01,2013-01-16 13:47:00,
2013-01-16 05:51:00,38.3,20.4,30.53,ENE,77,4.9,4.9,48,0.00,,---,0.00,VWS V14.01,2013-01-16 13:51:00,
2013-01-16 05:52:00,38.3,20.4,30.53,ENE,72,2.2,4.9,48,0.00,,---,0.00,VWS V14.01,2013-01-16 13:52:00,
2013-01-16 05:54:00,38.3,20.4,30.53,East,84,5.4,5.4,48,0.00,,---,0.00,VWS V14.01,2013-01-16 13:54:00,
2013-01-16 05:55:00,38.3,20.4,30.53,East,84,5.4,5.4,48,0.00,,---,0.00,VWS V14.01,2013-01-16 13:55:00,
2013-01-16 05:57:00,38.3,20.8,30.53,NE,42,0.0,5.4,49,0.00,,---,0.00,VWS V14.01,2013-01-16 13:57:00,
2013-01-16 05:59:00,38.3,20.8,30.53,ENE,75,0.0,2.7,49,0.00,,---,0.00,VWS V14.01,2013-01-16 13:59:00,
2013-01-16 06:03:00,38.3,20.8,30.53,East,82,0.0,0.0,49,0.00,,---,0.00,VWS V14.01,2013-01-16 14:03:00,
2013-01-16 06:05:00,38.3,20.8,30.53,ENE,66,6.3,6.3,49,0.00,,---,0.00,VWS V14.01,2013-01-16 14:05:00,
2013-01-16 06:06:00,38.3,20.8,30.53,NE,51,6.3,6.3,49,0.00,,---,0.00,VWS V14.01,2013-01-16 14:06:00,
2013-01-16 06:08:00,38.3,20.8,30.53,East,84,8.3,8.3,49,0.00,,---,0.00,VWS V14.01,2013-01-16 14:08:00,
2013-01-16 06:11:00,38.3,20.8,30.53,East,81,5.4,7.6,49,0.00,,---,0.00,VWS V14.01,2013-01-16 14:11:00,
2013-01-16 06:12:00,38.3,20.8,30.53,East,81,5.4,5.4,49,0.00,,---,0.00,VWS V14.01,2013-01-16 14:12:00,
2013-01-16 06:14:00,38.3,21.3,30.53,ENE,73,4.0,6.3,50,0.00,,---,0.00,VWS V14.01,2013-01-16 14:14:00,
2013-01-16 06:18:00,38.3,21.3,30.53,NE,56,5.4,5.4,50,0.00,,---,0.00,VWS V14.01,2013-01-16 14:18:00,
2013-01-16 06:20:00,38.3,21.3,30.53,NE,39,0.0,0.0,50,0.00,,---,0.00,VWS V14.01,2013-01-16 14:20:00,
2013-01-16 06:21:00,38.3,21.3,30.53,NE,39,0.0,0.0,50,0.00,,---,0.00,VWS V14.01,2013-01-16 14:21:00,
2013-01-16 06:22:00,38.3,21.3,30.53,ENE,60,4.0,4.0,50,0.00,,---,0.00,VWS V14.01,2013-01-16 14:22:00,
2013-01-16 06:26:00,38.3,21.3,30.53,NE,40,2.7,7.2,50,0.00,,---,0.00,VWS V14.01,2013-01-16 14:26:00,
2013-01-16 06:27:00,38.3,21.3,30.53,NE,54,4.9,4.9,50,0.00,,---,0.00,VWS V14.01,2013-01-16 14:27:00,
2013-01-16 06:32:00,38.3,21.3,30.53,ENE,63,0.0,5.4,50,0.00,,---,0.00,VWS V14.01,2013-01-16 14:32:00,
2013-01-16 06:33:00,38.3,21.3,30.53,NNE,14,0.0,0.0,50,0.00,,---,0.00,VWS V14.01,2013-01-16 14:33:00,
2013-01-16 06:35:00,38.3,21.3,30.53,NE,49,3.6,3.6,50,0.00,,---,0.00,VWS V14.01,2013-01-16 14:35:00,
2013-01-16 06:37:00,38.3,21.3,30.53,ENE,60,5.8,5.8,50,0.00,,---,0.00,VWS V14.01,2013-01-16 14:37:00,
2013-01-16 06:39:00,38.1,21.1,30.53,NE,34,4.0,4.0,50,0.00,,---,0.00,VWS V14.01,2013-01-16 14:39:00,
2013-01-16 06:41:00,38.1,21.1,30.53,ENE,64,2.7,2.7,50,0.00,,---,0.00,VWS V14.01,2013-01-16 14:41:00,
2013-01-16 06:42:00,38.1,21.1,30.53,ENE,64,2.7,2.7,50,0.00,,---,0.00,VWS V14.01,2013-01-16 14:42:00,
2013-01-16 06:44:00,38.1,21.1,30.53,ENE,76,3.1,3.6,50,0.00,,---,0.00,VWS V14.01,2013-01-16 14:44:00,
2013-01-16 06:46:00,38.1,21.1,30.53,ENE,58,3.1,3.6,50,0.00,,---,0.00,VWS V14.01,2013-01-16 14:46:00,
2013-01-16 06:48:00,38.1,21.1,30.53,NE,44,3.6,3.6,50,0.00,,---,0.00,VWS V14.01,2013-01-16 14:48:00,
2013-01-16 06:49:00,38.1,21.1,30.53,NE,44,2.7,3.6,50,0.00,,---,0.00,VWS V14.01,2013-01-16 14:49:00,
2013-01-16 06:52:00,38.1,21.1,30.53,ENE,76,0.0,4.0,50,0.00,,---,0.00,VWS V14.01,2013-01-16 14:52:00,
2013-01-16 06:53:00,38.1,21.1,30.53,ENE,78,5.4,5.4,50,0.00,,---,0.00,VWS V14.01,2013-01-16 14:53:00,
2013-01-16 06:57:00,38.1,21.1,30.53,ENE,58,2.7,3.6,50,0.00,,---,0.00,VWS V14.01,2013-01-16 14:57:00,
2013-01-16 06:58:00,38.1,21.1,30.53,ENE,73,6.3,6.3,50,0.00,,---,0.00,VWS V14.01,2013-01-16 14:58:00,
2013-01-16 07:00:00,38.1,21.1,30.53,East,98,3.1,3.1,50,0.00,,---,0.00,VWS V14.01,2013-01-16 15:00:00,
2013-01-16 07:04:00,38.1,21.1,30.53,ESE,109,5.8,5.8,50,0.00,,---,0.00,VWS V14.01,2013-01-16 15:04:00,
2013-01-16 07:05:00,38.1,21.1,30.53,NE,50,4.0,5.8,50,0.00,,---,0.00,VWS V14.01,2013-01-16 15:05:00,
2013-01-16 07:10:00,38.1,21.1,30.53,East,80,5.4,5.4,50,0.00,,---,0.00,VWS V14.01,2013-01-16 15:10:00,
2013-01-16 07:11:00,38.1,21.1,30.53,East,81,5.4,5.4,50,0.00,,---,0.00,VWS V14.01,2013-01-16 15:11:00,
2013-01-16 07:14:00,38.1,21.1,30.53,East,90,5.8,6.3,50,0.00,,---,0.00,VWS V14.01,2013-01-16 15:14:00,
2013-01-16 07:17:00,38.1,21.1,30.53,East,101,6.3,6.3,50,0.00,,---,0.00,VWS V14.01,2013-01-16 15:17:00,
2013-01-16 07:21:00,38.1,21.1,30.53,ENE,77,8.7,9.2,50,0.00,,---,0.00,VWS V14.01,2013-01-16 15:21:00,
2013-01-16 07:22:00,38.1,21.1,30.53,NE,42,5.8,8.7,50,0.00,,---,0.00,VWS V14.01,2013-01-16 15:22:00,
2013-01-16 07:23:00,38.1,21.1,30.53,NE,42,5.8,5.8,50,0.00,,---,0.00,VWS V14.01,2013-01-16 15:23:00,
2013-01-16 07:25:00,38.1,21.1,30.53,ENE,65,5.8,5.8,50,0.00,,---,0.00,VWS V14.01,2013-01-16 15:25:00,
2013-01-16 07:28:00,38.1,21.6,30.53,ENE,70,4.9,4.9,51,0.00,,---,0.00,VWS V14.01,2013-01-16 15:28:00,
2013-01-16 07:30:00,38.1,21.6,30.53,East,88,6.7,6.7,51,0.00,,---,0.00,VWS V14.01,2013-01-16 15:30:00,
2013-01-16 07:32:00,38.1,21.6,30.53,East,94,5.8,6.7,51,0.00,,---,0.00,VWS V14.01,2013-01-16 15:32:00,
2013-01-16 07:33:00,38.1,21.6,30.53,ESE,104,4.5,5.8,51,0.00,,---,0.00,VWS V14.01,2013-01-16 15:33:00,
2013-01-16 07:35:00,38.1,21.6,30.53,North,353,0.0,4.5,51,0.00,,---,0.00,VWS V14.01,2013-01-16 15:35:00,
2013-01-16 07:38:00,38.1,21.6,30.53,NE,35,0.0,3.1,51,0.00,,---,0.00,VWS V14.01,2013-01-16 15:38:00,
2013-01-16 07:40:00,38.1,21.6,30.53,NE,35,0.0,0.0,51,0.00,,---,0.00,VWS V14.01,2013-01-16 15:40:00,
2013-01-16 07:41:00,38.1,21.6,30.53,NE,35,0.0,0.0,51,0.00,,---,0.00,VWS V14.01,2013-01-16 15:41:00,
2013-01-16 07:44:00,37.9,21.9,30.53,ENE,61,0.0,0.0,52,0.00,,---,0.00,VWS V14.01,2013-01-16 15:44:00,
2013-01-16 07:46:00,37.9,21.9,30.53,NE,46,0.0,0.0,52,0.00,,---,0.00,VWS V14.01,2013-01-16 15:46:00,
2013-01-16 07:47:00,37.9,21.9,30.53,NE,52,0.0,0.0,52,0.00,,---,0.00,VWS V14.01,2013-01-16 15:47:00,
2013-01-16 07:51:00,37.9,21.9,30.53,East,80,0.0,4.0,52,0.00,,---,0.00,VWS V14.01,2013-01-16 15:51:00,
2013-01-16 07:53:00,37.9,21.4,30.53,East,81,0.0,0.0,51,0.00,,---,0.00,VWS V14.01,2013-01-16 15:53:00,
2013-01-16 07:54:00,37.9,21.9,30.53,East,81,0.0,0.0,52,0.00,,---,0.00,VWS V14.01,2013-01-16 15:54:00,
2013-01-16 07:56:00,37.9,21.9,30.53,East,79,0.0,0.0,52,0.00,,---,0.00,VWS V14.01,2013-01-16 15:56:00,
2013-01-16 07:57:00,37.9,21.9,30.53,East,79,0.0,0.0,52,0.00,,---,0.00,VWS V14.01,2013-01-16 15:57:00,
2013-01-16 07:59:00,37.9,21.9,30.53,East,79,0.0,0.0,52,0.00,,---,0.00,VWS V14.01,2013-01-16 15:59:00,
2013-01-16 08:02:00,37.9,21.9,30.53,ENE,77,0.0,0.0,52,0.00,,---,0.00,VWS V14.01,2013-01-16 16:02:00,
2013-01-16 08:03:00,37.9,21.9,30.53,East,79,0.0,0.0,52,0.00,,---,0.00,VWS V14.01,2013-01-16 16:03:00,
2013-01-16 08:04:00,37.9,21.9,30.53,East,79,0.0,0.0,52,0.00,,---,0.00,VWS V14.01,2013-01-16 16:04:00,
2013-01-16 08:07:00,37.9,21.9,30.53,East,79,0.0,0.0,52,0.00,,---,0.00,VWS V14.01,2013-01-16 16:07:00,
2013-01-16 08:09:00,37.9,21.9,30.53,ENE,61,0.0,5.4,52,0.00,,---,0.00,VWS V14.01,2013-01-16 16:09:00,
2013-01-16 08:10:00,37.9,21.9,30.53,ENE,58,3.6,5.8,52,0.00,,---,0.00,VWS V14.01,2013-01-16 16:10:00,
2013-01-16 08:12:00,37.9,21.9,30.53,NE,38,0.0,3.6,52,0.00,,---,0.00,VWS V14.01,2013-01-16 16:12:00,
2013-01-16 08:17:00,37.9,21.9,30.53,ENE,59,0.0,0.0,52,0.00,,---,0.00,VWS V14.01,2013-01-16 16:17:00,
2013-01-16 08:19:00,37.9,21.9,30.53,ENE,74,8.1,8.1,52,0.00,,---,0.00,VWS V14.01,2013-01-16 16:19:00,
2013-01-16 08:20:00,37.9,21.9,30.53,ENE,74,8.1,8.1,52,0.00,,---,0.00,VWS V14.01,2013-01-16 16:20:00,
2013-01-16 08:23:00,38.1,22.1,30.53,ENE,61,0.0,5.4,52,0.00,,---,0.00,VWS V14.01,2013-01-16 16:23:00,
2013-01-16 08:26:00,38.1,21.6,30.53,ENE,61,0.0,0.0,51,0.00,,---,0.00,VWS V14.01,2013-01-16 16:26:00,
2013-01-16 08:29:00,38.1,21.6,30.53,ENE,65,0.0,0.0,51,0.00,,---,0.00,VWS V14.01,2013-01-16 16:29:00,
2013-01-16 08:31:00,38.1,21.6,30.53,East,80,2.2,4.0,51,0.00,,---,0.00,VWS V14.01,2013-01-16 16:31:00,
2013-01-16 08:32:00,38.1,21.6,30.53,NE,56,3.1,3.1,51,0.00,,---,0.00,VWS V14.01,2013-01-16 16:32:00,
2013-01-16 08:33:00,38.1,21.6,30.53,NE,48,5.4,5.4,51,0.00,,---,0.00,VWS V14.01,2013-01-16 16:33:00,
2013-01-16 08:34:00,38.1,21.6,30.53,NE,48,5.4,5.4,51,0.00,,---,0.00,VWS V14.01,2013-01-16 16:34:00,
2013-01-16 08:38:00,37.9,21.4,30.53,ENE,66,2.7,2.7,51,0.00,,---,0.00,VWS V14.01,2013-01-16 16:38:00,
2013-01-16 08:39:00,37.9,21.4,30.53,East,81,2.7,2.7,51,0.00,,---,0.00,VWS V14.01,2013-01-16 16:39:00,
2013-01-16 08:41:00,37.9,21.4,30.53,NE,51,3.6,5.4,51,0.00,,---,0.00,VWS V14.01,2013-01-16 16:41:00,
2013-01-16 08:44:00,37.9,21.4,30.53,East,80,4.9,4.9,51,0.00,,---,0.00,VWS V14.01,2013-01-16 16:44:00,
2013-01-16 08:46:00,37.8,21.3,30.53,NE,51,0.0,0.0,51,0.00,,---,0.00,VWS V14.01,2013-01-16 16:46:00,
2013-01-16 08:51:00,37.8,21.3,30.53,ENE,76,4.9,4.9,51,0.00,,---,0.00,VWS V14.01,2013-01-16 16:51:00,
2013-01-16 08:52:00,37.8,21.3,30.53,East,89,5.8,5.8,51,0.00,,---,0.00,VWS V14.01,2013-01-16 16:52:00,
2013-01-16 08:53:00,37.8,21.3,30.53,ENE,74,6.3,6.3,51,0.00,,---,0.00,VWS V14.01,2013-01-16 16:53:00,
2013-01-16 08:54:00,37.6,21.1,30.53,ENE,74,6.3,6.3,51,0.00,,---,0.00,VWS V14.01,2013-01-16 16:54:00,
2013-01-16 08:57:00,37.6,21.1,30.53,East,79,4.9,4.9,51,0.00,,---,0.00,VWS V14.01,2013-01-16 16:57:00,
2013-01-16 08:59:00,37.6,21.1,30.53,ENE,78,5.8,5.8,51,0.00,,---,0.00,VWS V14.01,2013-01-16 16:59:00,
2013-01-16 09:00:00,37.6,21.1,30.53,ENE,73,2.7,5.8,51,0.00,,---,0.00,VWS V14.01,2013-01-16 17:00:00,
2013-01-16 09:06:00,37.8,21.3,30.53,ENE,73,5.8,5.8,51,0.00,,---,0.00,VWS V14.01,2013-01-16 17:06:00,
2013-01-16 09:07:00,37.8,21.3,30.53,ENE,69,2.2,5.8,51,0.00,,---,0.00,VWS V14.01,2013-01-16 17:07:00,
2013-01-16 09:08:00,37.8,21.3,30.53,East,90,5.4,5.4,51,0.00,,---,0.00,VWS V14.01,2013-01-16 17:08:00,
2013-01-16 09:12:00,37.9,21.4,30.53,ENE,68,3.1,5.4,51,0.00,,---,0.00,VWS V14.01,2013-01-16 17:12:00,
2013-01-16 09:13:00,37.9,21.4,30.53,East,84,4.0,5.4,51,0.00,,---,0.00,VWS V14.01,2013-01-16 17:13:00,
2013-01-16 09:15:00,37.9,21.4,30.53,ENE,67,4.9,4.9,51,0.00,,---,0.00,VWS V14.01,2013-01-16 17:15:00,
2013-01-16 09:17:00,38.1,21.6,30.53,ENE,73,5.4,5.4,51,0.00,,---,0.00,VWS V14.01,2013-01-16 17:17:00,
2013-01-16 09:20:00,38.1,21.6,30.53,ENE,68,4.0,5.8,51,0.00,,---,0.00,VWS V14.01,2013-01-16 17:20:00,
2013-01-16 09:23:00,38.1,21.6,30.53,East,86,5.8,5.8,51,0.00,,---,0.00,VWS V14.01,2013-01-16 17:23:00,
2013-01-16 09:24:00,38.1,21.6,30.53,East,86,5.4,5.8,51,0.00,,---,0.00,VWS V14.01,2013-01-16 17:24:00,
2013-01-16 09:25:00,38.1,21.6,30.53,ENE,76,3.6,5.4,51,0.00,,---,0.00,VWS V14.01,2013-01-16 17:25:00,
2013-01-16 09:26:00,38.1,21.6,30.53,ENE,76,3.6,3.6,51,0.00,,---,0.00,VWS V14.01,2013-01-16 17:26:00,
2013-01-16 09:29:00,38.1,21.6,30.53,East,96,5.4,5.4,51,0.00,,---,0.00,VWS V14.01,2013-01-16 17:29:00,
2013-01-16 09:31:00,38.1,21.6,30.53,East,90,5.4,5.4,51,0.00,,---,0.00,VWS V14.01,2013-01-16 17:31:00,
2013-01-16 09:34:00,38.1,21.6,30.53,East,88,4.9,5.8,51,0.00,,---,0.00,VWS V14.01,2013-01-16 17:34:00,
2013-01-16 09:35:00,38.1,21.6,30.53,East,88,4.9,4.9,51,0.00,,---,0.00,VWS V14.01,2013-01-16 17:35:00,
2013-01-16 09:37:00,38.1,21.6,30.53,East,87,5.4,5.8,51,0.00,,---,0.00,VWS V14.01,2013-01-16 17:37:00,
2013-01-16 09:41:00,38.1,21.6,30.53,East,79,3.6,4.5,51,0.00,,---,0.00,VWS V14.01,2013-01-16 17:41:00,
2013-01-16 09:42:00,38.1,21.6,30.53,East,79,3.6,3.6,51,0.00,,---,0.00,VWS V14.01,2013-01-16 17:42:00,
2013-01-16 09:43:00,38.1,21.6,30.53,East,85,3.6,3.6,51,0.00,,---,0.00,VWS V14.01,2013-01-16 17:43:00,
2013-01-16 09:47:00,38.5,21.9,30.53,East,92,4.9,5.4,51,0.00,,---,0.00,VWS V14.01,2013-01-16 17:47:00,
2013-01-16 09:48:00,38.5,21.9,30.53,East,86,4.0,4.9,51,0.00,,---,0.00,VWS V14.01,2013-01-16 17:48:00,
2013-01-16 09:49:00,38.5,21.9,30.53,East,86,4.0,4.0,51,0.00,,---,0.00,VWS V14.01,2013-01-16 17:49:00,
2013-01-16 09:50:00,38.5,21.9,30.53,East,89,5.4,5.4,51,0.00,,---,0.00,VWS V14.01,2013-01-16 17:50:00,
2013-01-16 09:52:00,38.5,21.9,30.53,East,89,5.4,5.4,51,0.00,,---,0.00,VWS V14.01,2013-01-16 17:52:00,
2013-01-16 09:54:00,38.5,21.9,30.53,ENE,77,4.0,4.0,51,0.00,,---,0.00,VWS V14.01,2013-01-16 17:54:00,
2013-01-16 09:55:00,38.5,21.9,30.53,ENE,77,4.0,4.0,51,0.00,,---,0.00,VWS V14.01,2013-01-16 17:55:00,
2013-01-16 09:57:00,38.5,21.9,30.53,East,93,5.4,5.4,51,0.00,,---,0.00,VWS V14.01,2013-01-16 17:57:00,
2013-01-16 09:58:00,38.5,21.9,30.53,East,93,5.4,5.4,51,0.00,,---,0.00,VWS V14.01,2013-01-16 17:58:00,
2013-01-16 09:59:00,38.5,21.9,30.53,East,93,5.4,5.4,51,0.00,,---,0.00,VWS V14.01,2013-01-16 17:59:00,
2013-01-16 10:02:00,38.8,22.3,30.53,East,94,5.4,5.4,51,0.00,,---,0.00,VWS V14.01,2013-01-16 18:02:00,
2013-01-16 10:03:00,38.8,22.3,30.53,East,94,5.4,5.4,51,0.00,,---,0.00,VWS V14.01,2013-01-16 18:03:00,
2013-01-16 10:04:00,38.8,22.3,30.53,East,94,5.4,5.4,51,0.00,,---,0.00,VWS V14.01,2013-01-16 18:04:00,
2013-01-16 10:05:00,38.8,22.3,30.53,East,92,5.4,5.4,51,0.00,,---,0.00,VWS V14.01,2013-01-16 18:05:00,
2013-01-16 10:08:00,38.8,22.3,30.53,East,89,6.3,6.3,51,0.00,,---,0.00,VWS V14.01,2013-01-16 18:08:00,
2013-01-16 10:10:00,38.8,22.3,30.53,East,89,6.3,6.3,51,0.00,,---,0.00,VWS V14.01,2013-01-16 18:10:00,
2013-01-16 10:12:00,38.8,22.3,30.53,East,85,5.8,6.3,51,0.00,,---,0.00,VWS V14.01,2013-01-16 18:12:00,
2013-01-16 10:14:00,39.7,22.6,30.53,East,90,5.8,5.8,50,0.00,,---,0.00,VWS V14.01,2013-01-16 18:14:00,
2013-01-16 10:15:00,39.7,22.6,30.53,East,90,5.8,5.8,50,0.00,,---,0.00,VWS V14.01,2013-01-16 18:15:00,
2013-01-16 10:20:00,40.3,23.1,30.53,East,83,6.3,6.3,50,0.00,,---,0.00,VWS V14.01,2013-01-16 18:20:00,
2013-01-16 10:22:00,40.5,23.3,30.53,East,87,4.9,5.4,50,0.00,,---,0.00,VWS V14.01,2013-01-16 18:22:00,
2013-01-16 10:23:00,40.5,23.3,30.53,East,86,4.0,5.8,50,0.00,,---,0.00,VWS V14.01,2013-01-16 18:23:00,
2013-01-16 10:24:00,40.5,23.3,30.53,East,80,4.0,4.0,50,0.00,,---,0.00,VWS V14.01,2013-01-16 18:24:00,
2013-01-16 10:28:00,40.6,20.5,30.53,East,82,5.4,5.4,44,0.00,,---,0.00,VWS V14.01,2013-01-16 18:28:00,
2013-01-16 10:29:00,41.0,20.8,30.53,ENE,74,5.8,5.8,44,0.00,,---,0.00,VWS V14.01,2013-01-16 18:29:00,
2013-01-16 10:30:00,41.0,20.8,30.53,ENE,70,3.6,5.8,44,0.00,,---,0.00,VWS V14.01,2013-01-16 18:30:00,
2013-01-16 10:34:00,41.2,20.4,30.53,East,89,4.9,4.9,43,0.00,,---,0.00,VWS V14.01,2013-01-16 18:34:00,
2013-01-16 10:35:00,41.4,20.6,30.53,East,91,4.0,4.9,43,0.00,,---,0.00,VWS V14.01,2013-01-16 18:35:00,
2013-01-16 10:37:00,41.5,20.7,30.53,East,91,5.4,5.4,43,0.00,,---,0.00,VWS V14.01,2013-01-16 18:37:00,
2013-01-16 10:41:00,42.1,21.2,30.53,East,84,4.9,5.8,43,0.00,,---,0.00,VWS V14.01,2013-01-16 18:41:00,
2013-01-16 10:42:00,42.1,21.2,30.53,East,84,4.9,4.9,43,0.00,,---,0.00,VWS V14.01,2013-01-16 18:42:00,
2013-01-16 10:44:00,42.3,21.4,30.53,East,79,4.0,5.4,43,0.00,,---,0.00,VWS V14.01,2013-01-16 18:44:00,
2013-01-16 10:46:00,42.4,21.0,30.53,East,97,4.0,4.9,42,0.00,,---,0.00,VWS V14.01,2013-01-16 18:46:00,
2013-01-16 10:47:00,42.4,21.0,30.53,East,86,4.0,5.4,42,0.00,,---,0.00,VWS V14.01,2013-01-16 18:47:00,
2013-01-16 10:48:00,42.4,21.0,30.53,East,88,5.4,5.4,42,0.00,,---,0.00,VWS V14.01,2013-01-16 18:48:00,
2013-01-16 10:51:00,42.4,21.0,30.53,East,87,5.8,5.8,42,0.00,,---,0.00,VWS V14.01,2013-01-16 18:51:00,
2013-01-16 10:54:00,43.0,20.3,30.53,East,89,4.0,4.0,40,0.00,,---,0.00,VWS V14.01,2013-01-16 18:54:00,
2013-01-16 10:55:00,43.0,20.3,30.53,East,89,3.6,4.0,40,0.00,,---,0.00,VWS V14.01,2013-01-16 18:55:00,
2013-01-16 10:57:00,43.0,19.1,30.53,East,98,2.7,4.0,38,0.00,,---,0.00,VWS V14.01,2013-01-16 18:57:00,
2013-01-16 11:00:00,43.3,20.1,30.53,East,86,4.0,5.8,39,0.00,,---,0.00,VWS V14.01,2013-01-16 19:00:00,
2013-01-16 11:02:00,43.3,20.1,30.53,East,93,5.4,5.4,39,0.00,,---,0.00,VWS V14.01,2013-01-16 19:02:00,
2013-01-16 11:04:00,43.5,20.2,30.53,East,81,5.4,5.4,39,0.00,,---,0.00,VWS V14.01,2013-01-16 19:04:00,
2013-01-16 11:08:00,43.5,18.4,30.53,East,85,4.0,4.0,36,0.00,,---,0.00,VWS V14.01,2013-01-16 19:08:00,
2013-01-16 11:09:00,43.7,18.5,30.53,East,101,3.1,4.9,36,0.00,,---,0.00,VWS V14.01,2013-01-16 19:09:00,
2013-01-16 11:11:00,43.7,18.5,30.53,East,95,4.0,5.4,36,0.00,,---,0.00,VWS V14.01,2013-01-16 19:11:00,
2013-01-16 11:13:00,43.9,18.0,30.53,East,93,4.0,4.0,35,0.00,,---,0.00,VWS V14.01,2013-01-16 19:13:00,
2013-01-16 11:16:00,44.1,17.5,30.50,ENE,68,5.4,5.4,34,0.00,,---,0.00,VWS V14.01,2013-01-16 19:16:00,
2013-01-16 11:19:00,43.7,17.2,30.50,NE,40,2.2,4.0,34,0.00,,---,0.00,VWS V14.01,2013-01-16 19:19:00,
2013-01-16 11:21:00,44.1,18.8,30.50,ENE,64,5.4,5.4,36,0.00,,---,0.00,VWS V14.01,2013-01-16 19:21:00,
2013-01-16 11:22:00,44.1,18.8,30.50,East,95,5.8,5.8,36,0.00,,---,0.00,VWS V14.01,2013-01-16 19:22:00,
2013-01-16 11:24:00,44.1,16.1,30.50,North,353,0.0,4.0,32,0.00,,---,0.00,VWS V14.01,2013-01-16 19:24:00,
2013-01-16 11:26:00,44.1,16.1,30.50,North,353,0.0,0.0,32,0.00,,---,0.00,VWS V14.01,2013-01-16 19:26:00,
2013-01-16 11:29:00,44.1,16.8,30.50,ENE,73,2.7,2.7,33,0.00,,---,0.00,VWS V14.01,2013-01-16 19:29:00,
2013-01-16 11:31:00,44.1,15.4,30.50,NE,48,2.7,4.9,31,0.00,,---,0.00,VWS V14.01,2013-01-16 19:31:00,
2013-01-16 11:33:00,43.9,15.2,30.50,NNE,17,4.0,4.0,31,0.00,,---,0.00,VWS V14.01,2013-01-16 19:33:00,
2013-01-16 11:35:00,43.9,15.2,30.50,NNE,17,4.0,4.0,31,0.00,,---,0.00,VWS V14.01,2013-01-16 19:35:00,
2013-01-16 11:37:00,43.9,15.2,30.50,NE,55,3.6,3.6,31,0.00,,---,0.00,VWS V14.01,2013-01-16 19:37:00,
2013-01-16 11:39:00,43.9,15.2,30.50,NE,52,0.0,0.0,31,0.00,,---,0.00,VWS V14.01,2013-01-16 19:39:00,
2013-01-16 11:40:00,43.9,15.2,30.50,NE,52,0.0,0.0,31,0.00,,---,0.00,VWS V14.01,2013-01-16 19:40:00,
2013-01-16 11:43:00,44.4,15.7,30.50,NE,52,0.0,0.0,31,0.00,,---,0.00,VWS V14.01,2013-01-16 19:43:00,
2013-01-16 11:46:00,44.2,15.5,30.50,East,84,4.0,4.0,31,0.00,,---,0.00,VWS V14.01,2013-01-16 19:46:00,
2013-01-16 11:47:00,44.4,15.7,30.50,ENE,61,0.0,4.0,31,0.00,,---,0.00,VWS V14.01,2013-01-16 19:47:00,
2013-01-16 11:50:00,44.2,16.3,30.50,North,0,3.1,3.1,32,0.00,,---,0.00,VWS V14.01,2013-01-16 19:50:00,
2013-01-16 11:55:00,44.6,15.9,30.50,NNW,328,0.0,0.0,31,0.00,,---,0.00,VWS V14.01,2013-01-16 19:55:00,
2013-01-16 11:56:00,44.6,15.9,30.50,NNW,328,0.0,0.0,31,0.00,,---,0.00,VWS V14.01,2013-01-16 19:56:00,
2013-01-16 11:59:00,44.2,15.5,30.50,East,83,5.8,5.8,31,0.00,,---,0.00,VWS V14.01,2013-01-16 19:59:00,
2013-01-16 12:00:00,44.2,15.5,30.50,East,83,5.8,5.8,31,0.00,,---,0.00,VWS V14.01,2013-01-16 20:00:00,
2013-01-16 12:03:00,44.2,15.5,30.50,East,88,5.8,5.8,31,0.00,,---,0.00,VWS V14.01,2013-01-16 20:03:00,
2013-01-16 12:04:00,44.2,15.5,30.50,North,353,2.7,5.8,31,0.00,,---,0.00,VWS V14.01,2013-01-16 20:04:00,
2013-01-16 12:07:00,44.2,18.3,30.50,NE,39,0.0,0.0,35,0.00,,---,0.00,VWS V14.01,2013-01-16 20:07:00,
2013-01-16 12:09:00,44.2,15.5,30.50,NE,44,2.7,2.7,31,0.00,,---,0.00,VWS V14.01,2013-01-16 20:09:00,
2013-01-16 12:11:00,44.6,15.1,30.50,ENE,60,5.8,5.8,30,0.00,,---,0.00,VWS V14.01,2013-01-16 20:11:00,
2013-01-16 12:12:00,44.6,15.1,30.50,ENE,60,5.8,5.8,30,0.00,,---,0.00,VWS V14.01,2013-01-16 20:12:00,
2013-01-16 12:15:00,44.8,16.0,30.50,East,93,5.4,5.4,31,0.00,,---,0.00,VWS V14.01,2013-01-16 20:15:00,
2013-01-16 12:17:00,45.0,16.2,30.50,NE,50,3.6,5.4,31,0.00,,---,0.00,VWS V14.01,2013-01-16 20:17:00,
2013-01-16 12:18:00,45.0,16.2,30.50,East,87,3.1,3.6,31,0.00,,---,0.00,VWS V14.01,2013-01-16 20:18:00,
2013-01-16 12:23:00,45.0,16.2,30.50,NE,44,2.7,2.7,31,0.00,,---,0.00,VWS V14.01,2013-01-16 20:23:00,
2013-01-16 12:24:00,45.0,16.2,30.50,NE,44,2.7,2.7,31,0.00,,---,0.00,VWS V14.01,2013-01-16 20:24:00,
2013-01-16 12:26:00,45.0,16.2,30.50,North,9,2.7,3.6,31,0.00,,---,0.00,VWS V14.01,2013-01-16 20:26:00,
2013-01-16 12:29:00,45.0,16.2,30.50,NNE,16,2.7,4.0,31,0.00,,---,0.00,VWS V14.01,2013-01-16 20:29:00,
2013-01-16 12:33:00,45.3,16.5,30.50,NE,41,2.2,4.9,31,0.00,,---,0.00,VWS V14.01,2013-01-16 20:33:00,
2013-01-16 12:35:00,45.3,16.5,30.50,NE,41,2.2,2.2,31,0.00,,---,0.00,VWS V14.01,2013-01-16 20:35:00,
2013-01-16 12:36:00,45.1,16.3,30.50,North,0,0.0,3.1,31,0.00,,---,0.00,VWS V14.01,2013-01-16 20:36:00,
2013-01-16 12:39:00,44.6,16.6,30.50,NNE,32,0.0,0.0,32,0.00,,---,0.00,VWS V14.01,2013-01-16 20:39:00,
2013-01-16 12:40:00,44.2,15.5,30.50,NNE,32,0.0,0.0,31,0.00,,---,0.00,VWS V14.01,2013-01-16 20:40:00,
2013-01-16 12:42:00,44.4,16.4,30.50,NE,38,2.7,2.7,32,0.00,,---,0.00,VWS V14.01,2013-01-16 20:42:00,
2013-01-16 12:43:00,44.8,18.8,30.47,East,90,5.4,5.4,35,0.00,,---,0.00,VWS V14.01,2013-01-16 20:43:00,
2013-01-16 12:44:00,45.0,18.3,30.47,East,90,5.4,5.4,34,0.00,,---,0.00,VWS V14.01,2013-01-16 20:44:00,
2013-01-16 12:46:00,45.3,18.6,30.47,ENE,64,3.1,3.6,34,0.00,,---,0.00,VWS V14.01,2013-01-16 20:46:00,
2013-01-16 12:48:00,45.3,18.6,30.47,ENE,70,2.7,2.7,34,0.00,,---,0.00,VWS V14.01,2013-01-16 20:48:00,
2013-01-16 12:50:00,45.3,16.5,30.47,North,353,3.6,7.6,31,0.00,,---,0.00,VWS V14.01,2013-01-16 20:50:00,
2013-01-16 12:51:00,45.5,17.4,30.47,NNE,33,2.7,3.6,32,0.00,,---,0.00,VWS V14.01,2013-01-16 20:51:00,
2013-01-16 12:54:00,45.5,17.4,30.47,ENE,63,3.6,3.6,32,0.00,,---,0.00,VWS V14.01,2013-01-16 20:54:00,
2013-01-16 12:56:00,45.3,15.7,30.47,NE,34,3.6,3.6,30,0.00,,---,0.00,VWS V14.01,2013-01-16 20:56:00,
2013-01-16 12:57:00,45.1,15.6,30.47,NE,34,3.6,3.6,30,0.00,,---,0.00,VWS V14.01,2013-01-16 20:57:00,
2013-01-16 12:59:00,45.1,15.6,30.47,NE,55,2.2,2.2,30,0.00,,---,0.00,VWS V14.01,2013-01-16 20:59:00,
2013-01-16 13:02:00,45.1,16.3,30.47,ENE,75,3.1,3.1,31,0.00,,---,0.00,VWS V14.01,2013-01-16 21:02:00,
2013-01-16 13:03:00,45.1,16.3,30.47,NNE,14,2.7,3.1,31,0.00,,---,0.00,VWS V14.01,2013-01-16 21:03:00,
2013-01-16 13:08:00,44.8,15.3,30.47,NE,49,3.1,4.0,30,0.00,,---,0.00,VWS V14.01,2013-01-16 21:08:00,
2013-01-16 13:09:00,44.8,15.3,30.47,NNE,22,2.7,3.6,30,0.00,,---,0.00,VWS V14.01,2013-01-16 21:09:00,
2013-01-16 13:13:00,45.3,15.7,30.47,NE,42,2.7,2.7,30,0.00,,---,0.00,VWS V14.01,2013-01-16 21:13:00,
2013-01-16 13:14:00,45.3,15.7,30.47,NE,42,2.7,2.7,30,0.00,,---,0.00,VWS V14.01,2013-01-16 21:14:00,
2013-01-16 13:16:00,45.3,15.7,30.47,NE,48,5.4,5.4,30,0.00,,---,0.00,VWS V14.01,2013-01-16 21:16:00,
2013-01-16 13:19:00,45.7,17.5,30.47,NE,48,5.4,5.4,32,0.00,,---,0.00,VWS V14.01,2013-01-16 21:19:00,
2013-01-16 13:20:00,45.7,17.5,30.47,NE,48,5.4,5.4,32,0.00,,---,0.00,VWS V14.01,2013-01-16 21:20:00,
2013-01-16 13:25:00,45.5,16.6,30.47,ENE,73,5.4,5.4,31,0.00,,---,0.00,VWS V14.01,2013-01-16 21:25:00,
2013-01-16 13:27:00,45.5,16.6,30.47,ENE,63,7.6,7.6,31,0.00,,---,0.00,VWS V14.01,2013-01-16 21:27:00,
2013-01-16 13:31:00,45.5,16.6,30.47,ENE,60,5.8,5.8,31,0.00,,---,0.00,VWS V14.01,2013-01-16 21:31:00,
2013-01-16 13:32:00,45.5,16.6,30.47,ENE,60,5.8,5.8,31,0.00,,---,0.00,VWS V14.01,2013-01-16 21:32:00,
2013-01-16 13:33:00,45.5,16.6,30.47,ENE,60,5.8,5.8,31,0.00,,---,0.00,VWS V14.01,2013-01-16 21:33:00,
2013-01-16 13:34:00,45.5,16.6,30.47,ENE,60,5.8,5.8,31,0.00,,---,0.00,VWS V14.01,2013-01-16 21:34:00,
2013-01-16 13:38:00,45.5,16.6,30.47,ENE,60,5.8,5.8,31,0.00,,---,0.00,VWS V14.01,2013-01-16 21:38:00,
2013-01-16 13:39:00,45.5,16.6,30.47,ENE,60,5.8,5.8,31,0.00,,---,0.00,VWS V14.01,2013-01-16 21:39:00,
2013-01-16 13:41:00,45.5,16.6,30.47,ENE,62,6.3,6.3,31,0.00,,---,0.00,VWS V14.01,2013-01-16 21:41:00,
2013-01-16 13:44:00,45.5,16.6,30.47,ENE,61,4.9,4.9,31,0.00,,---,0.00,VWS V14.01,2013-01-16 21:44:00,
2013-01-16 13:46:00,45.5,16.6,30.47,ENE,68,2.7,4.0,31,0.00,,---,0.00,VWS V14.01,2013-01-16 21:46:00,
2013-01-16 13:47:00,45.5,16.6,30.47,ENE,77,6.3,6.3,31,0.00,,---,0.00,VWS V14.01,2013-01-16 21:47:00,
2013-01-16 13:52:00,46.2,17.3,30.47,NE,37,5.8,5.8,31,0.00,,---,0.00,VWS V14.01,2013-01-16 21:52:00,
2013-01-16 13:53:00,46.2,17.3,30.47,ENE,65,2.7,5.8,31,0.00,,---,0.00,VWS V14.01,2013-01-16 21:53:00,
2013-01-16 13:56:00,46.6,16.8,30.47,ENE,65,2.7,2.7,30,0.00,,---,0.00,VWS V14.01,2013-01-16 21:56:00,
2013-01-16 13:58:00,46.6,17.6,30.47,ENE,65,2.7,2.7,31,0.00,,---,0.00,VWS V14.01,2013-01-16 21:58:00,
2013-01-16 13:59:00,46.6,17.6,30.47,ENE,65,2.7,2.7,31,0.00,,---,0.00,VWS V14.01,2013-01-16 21:59:00,
2013-01-16 14:01:00,46.6,17.6,30.47,ENE,65,2.7,2.7,31,0.00,,---,0.00,VWS V14.01,2013-01-16 22:01:00,
2013-01-16 14:02:00,46.6,17.6,30.47,ENE,65,2.7,2.7,31,0.00,,---,0.00,VWS V14.01,2013-01-16 22:02:00,
2013-01-16 14:07:00,46.6,17.6,30.47,NE,47,4.0,4.0,31,0.00,,---,0.00,VWS V14.01,2013-01-16 22:07:00,
2013-01-16 14:09:00,46.6,17.6,30.47,NE,47,4.0,4.0,31,0.00,,---,0.00,VWS V14.01,2013-01-16 22:09:00,
2013-01-16 14:10:00,46.6,17.6,30.47,NE,47,4.0,4.0,31,0.00,,---,0.00,VWS V14.01,2013-01-16 22:10:00,
2013-01-16 14:13:00,45.5,15.9,30.47,NE,48,3.1,4.0,30,0.00,,---,0.00,VWS V14.01,2013-01-16 22:13:00,
2013-01-16 14:14:00,45.5,16.6,30.47,NE,48,3.1,3.1,31,0.00,,---,0.00,VWS V14.01,2013-01-16 22:14:00,
2013-01-16 14:15:00,45.5,15.9,30.47,ENE,69,2.7,3.1,30,0.00,,---,0.00,VWS V14.01,2013-01-16 22:15:00,
2013-01-16 14:17:00,45.5,15.9,30.47,NE,56,3.6,3.6,30,0.00,,---,0.00,VWS V14.01,2013-01-16 22:17:00,
2013-01-16 14:19:00,45.3,15.7,30.47,NE,53,2.2,3.6,30,0.00,,---,0.00,VWS V14.01,2013-01-16 22:19:00,
2013-01-16 14:20:00,45.3,15.7,30.47,NE,54,3.6,3.6,30,0.00,,---,0.00,VWS V14.01,2013-01-16 22:20:00,
2013-01-16 14:24:00,44.8,16.0,30.47,ENE,67,0.0,2.2,31,0.00,,---,0.00,VWS V14.01,2013-01-16 22:24:00,
2013-01-16 14:25:00,44.8,16.0,30.47,ENE,57,2.7,2.7,31,0.00,,---,0.00,VWS V14.01,2013-01-16 22:25:00,
2013-01-16 14:26:00,44.6,15.9,30.47,ENE,57,2.7,2.7,31,0.00,,---,0.00,VWS V14.01,2013-01-16 22:26:00,
2013-01-16 14:28:00,44.4,15.7,30.47,ENE,64,4.5,4.5,31,0.00,,---,0.00,VWS V14.01,2013-01-16 22:28:00,
2013-01-16 14:31:00,44.4,16.4,30.47,ENE,68,2.2,3.6,32,0.00,,---,0.00,VWS V14.01,2013-01-16 22:31:00,
2013-01-16 14:33:00,44.4,16.4,30.47,ENE,64,4.0,6.3,32,0.00,,---,0.00,VWS V14.01,2013-01-16 22:33:00,
2013-01-16 14:34:00,44.2,16.3,30.47,NE,49,0.0,4.0,32,0.00,,---,0.00,VWS V14.01,2013-01-16 22:34:00,
2013-01-16 14:38:00,43.9,15.9,30.47,East,88,3.6,3.6,32,0.00,,---,0.00,VWS V14.01,2013-01-16 22:38:00,
2013-01-16 14:39:00,43.9,16.7,30.47,ENE,75,3.6,3.6,33,0.00,,---,0.00,VWS V14.01,2013-01-16 22:39:00,
2013-01-16 14:43:00,43.9,16.7,30.47,ENE,69,5.8,5.8,33,0.00,,---,0.00,VWS V14.01,2013-01-16 22:43:00,
2013-01-16 14:45:00,43.5,16.3,30.47,ENE,68,2.2,4.0,33,0.00,,---,0.00,VWS V14.01,2013-01-16 22:45:00,
2013-01-16 14:49:00,43.2,16.0,30.47,NE,45,2.2,4.0,33,0.00,,---,0.00,VWS V14.01,2013-01-16 22:49:00,
2013-01-16 14:50:00,43.2,17.4,30.47,NE,38,4.9,5.4,35,0.00,,---,0.00,VWS V14.01,2013-01-16 22:50:00,
2013-01-16 14:51:00,43.2,17.4,30.47,ENE,62,4.9,4.9,35,0.00,,---,0.00,VWS V14.01,2013-01-16 22:51:00,
2013-01-16 14:55:00,43.2,18.0,30.47,East,83,5.8,5.8,36,0.00,,---,0.00,VWS V14.01,2013-01-16 22:55:00,
2013-01-16 14:57:00,43.2,17.4,30.47,East,83,5.8,5.8,35,0.00,,---,0.00,VWS V14.01,2013-01-16 22:57:00,
2013-01-16 14:58:00,43.2,17.4,30.47,NE,41,3.1,5.8,35,0.00,,---,0.00,VWS V14.01,2013-01-16 22:58:00,
2013-01-16 15:00:00,43.3,18.2,30.47,ENE,73,5.8,5.8,36,0.00,,---,0.00,VWS V14.01,2013-01-16 23:00:00,
2013-01-16 15:01:00,43.2,18.0,30.47,NE,37,0.0,5.8,36,0.00,,---,0.00,VWS V14.01,2013-01-16 23:01:00,
2013-01-16 15:03:00,43.2,17.4,30.47,NE,43,0.0,0.0,35,0.00,,---,0.00,VWS V14.01,2013-01-16 23:03:00,
2013-01-16 15:06:00,43.0,17.2,30.47,ENE,66,0.0,5.4,35,0.00,,---,0.00,VWS V14.01,2013-01-16 23:06:00,
2013-01-16 15:07:00,43.0,17.2,30.47,ENE,63,0.0,0.0,35,0.00,,---,0.00,VWS V14.01,2013-01-16 23:07:00,
2013-01-16 15:09:00,42.8,17.1,30.47,NE,49,0.0,0.0,35,0.00,,---,0.00,VWS V14.01,2013-01-16 23:09:00,
2013-01-16 15:11:00,42.8,17.7,30.47,NE,41,5.8,5.8,36,0.00,,---,0.00,VWS V14.01,2013-01-16 23:11:00,
2013-01-16 15:12:00,42.8,17.7,30.47,ENE,66,4.9,5.8,36,0.00,,---,0.00,VWS V14.01,2013-01-16 23:12:00,
2013-01-16 15:13:00,42.8,17.7,30.47,ENE,66,4.9,4.9,36,0.00,,---,0.00,VWS V14.01,2013-01-16 23:13:00,
2013-01-16 15:15:00,42.8,17.7,30.47,ENE,74,3.1,3.1,36,0.00,,---,0.00,VWS V14.01,2013-01-16 23:15:00,
2013-01-16 15:17:00,42.6,17.5,30.47,ENE,65,3.1,4.0,36,0.00,,---,0.00,VWS V14.01,2013-01-16 23:17:00,
2013-01-16 15:21:00,42.6,18.8,30.47,ENE,65,3.1,3.1,38,0.00,,---,0.00,VWS V14.01,2013-01-16 23:21:00,
2013-01-16 15:22:00,42.6,18.8,30.47,ENE,65,3.1,3.1,38,0.00,,---,0.00,VWS V14.01,2013-01-16 23:22:00,
2013-01-16 15:24:00,42.6,18.8,30.47,ENE,65,3.1,3.1,38,0.00,,---,0.00,VWS V14.01,2013-01-16 23:24:00,
2013-01-16 15:26:00,42.3,17.9,30.47,ENE,65,3.1,3.1,37,0.00,,---,0.00,VWS V14.01,2013-01-16 23:26:00,
2013-01-16 15:28:00,42.3,17.9,30.47,NE,35,0.0,3.1,37,0.00,,---,0.00,VWS V14.01,2013-01-16 23:28:00,
2013-01-16 15:30:00,42.3,17.9,30.47,NE,35,0.0,0.0,37,0.00,,---,0.00,VWS V14.01,2013-01-16 23:30:00,
2013-01-16 15:31:00,42.3,17.9,30.47,NE,35,0.0,0.0,37,0.00,,---,0.00,VWS V14.01,2013-01-16 23:31:00,
2013-01-16 15:34:00,42.1,17.7,30.47,ENE,70,2.7,2.7,37,0.00,,---,0.00,VWS V14.01,2013-01-16 23:34:00,
2013-01-16 15:37:00,41.9,17.5,30.47,ENE,70,2.7,2.7,37,0.00,,---,0.00,VWS V14.01,2013-01-16 23:37:00,
2013-01-16 15:42:00,41.7,18.0,30.47,NE,47,0.0,2.7,38,0.00,,---,0.00,VWS V14.01,2013-01-16 23:42:00,
2013-01-16 15:45:00,41.7,18.0,30.45,NE,45,0.0,0.0,38,0.00,,---,0.00,VWS V14.01,2013-01-16 23:45:00,
2013-01-16 15:46:00,41.7,18.0,30.45,NE,46,0.0,0.0,38,0.00,,---,0.00,VWS V14.01,2013-01-16 23:46:00,
2013-01-16 15:48:00,41.5,17.8,30.45,NE,47,0.0,0.0,38,0.00,,---,0.00,VWS V14.01,2013-01-16 23:48:00,
2013-01-16 15:50:00,41.5,17.8,30.45,NE,48,2.2,2.2,38,0.00,,---,0.00,VWS V14.01,2013-01-16 23:50:00,
2013-01-16 15:51:00,41.5,17.8,30.45,NE,48,0.0,2.2,38,0.00,,---,0.00,VWS V14.01,2013-01-16 23:51:00,
2013-01-16 15:55:00,41.4,17.7,30.45,NE,42,0.0,0.0,38,0.00,,---,0.00,VWS V14.01,2013-01-16 23:55:00,
2013-01-16 15:56:00,41.4,17.7,30.45,NE,42,0.0,0.0,38,0.00,,---,0.00,VWS V14.01,2013-01-16 23:56:00,
2013-01-16 15:57:00,41.4,17.7,30.45,NE,50,2.2,2.2,38,0.00,,---,0.00,VWS V14.01,2013-01-16 23:57:00,
2013-01-16 16:01:00,41.2,17.5,30.45,NE,41,0.0,0.0,38,0.00,,---,0.00,VWS V14.01,2013-01-17 00:01:00,
2013-01-16 16:03:00,41.2,17.5,30.45,ENE,60,2.2,2.2,38,0.00,,---,0.00,VWS V14.01,2013-01-17 00:03:00,
2013-01-16 16:05:00,41.0,17.4,30.45,NE,40,2.2,2.2,38,0.00,,---,0.00,VWS V14.01,2013-01-17 00:05:00,
2013-01-16 16:08:00,41.0,17.4,30.45,NE,36,0.0,0.0,38,0.00,,---,0.00,VWS V14.01,2013-01-17 00:08:00,
2013-01-16 16:09:00,41.0,17.4,30.45,NE,35,0.0,0.0,38,0.00,,---,0.00,VWS V14.01,2013-01-17 00:09:00,
2013-01-16 16:11:00,40.8,17.8,30.45,NE,49,0.0,0.0,39,0.00,,---,0.00,VWS V14.01,2013-01-17 00:11:00,
2013-01-16 16:14:00,40.6,17.6,30.45,NNE,33,0.0,0.0,39,0.00,,---,0.00,VWS V14.01,2013-01-17 00:14:00,
2013-01-16 16:15:00,40.6,17.6,30.45,NNE,32,0.0,0.0,39,0.00,,---,0.00,VWS V14.01,2013-01-17 00:15:00,
2013-01-16 16:16:00,40.6,17.6,30.45,NNE,32,0.0,0.0,39,0.00,,---,0.00,VWS V14.01,2013-01-17 00:16:00,
2013-01-16 16:20:00,40.5,17.5,30.45,NE,51,0.0,0.0,39,0.00,,---,0.00,VWS V14.01,2013-01-17 00:20:00,
2013-01-16 16:21:00,40.5,17.5,30.45,NE,47,0.0,0.0,39,0.00,,---,0.00,VWS V14.01,2013-01-17 00:21:00,
2013-01-16 16:22:00,40.5,17.5,30.45,NE,47,0.0,0.0,39,0.00,,---,0.00,VWS V14.01,2013-01-17 00:22:00,
2013-01-16 16:26:00,40.3,17.3,30.45,ENE,58,0.0,0.0,39,0.00,,---,0.00,VWS V14.01,2013-01-17 00:26:00,
2013-01-16 16:27:00,40.3,17.3,30.45,ENE,58,0.0,0.0,39,0.00,,---,0.00,VWS V14.01,2013-01-17 00:27:00,
2013-01-16 16:28:00,40.3,17.3,30.45,ENE,58,0.0,0.0,39,0.00,,---,0.00,VWS V14.01,2013-01-17 00:28:00,
2013-01-16 16:29:00,40.3,17.3,30.45,ENE,57,0.0,0.0,39,0.00,,---,0.00,VWS V14.01,2013-01-17 00:29:00,
2013-01-16 16:33:00,40.3,17.3,30.45,ENE,57,0.0,0.0,39,0.00,,---,0.00,VWS V14.01,2013-01-17 00:33:00,
2013-01-16 16:34:00,40.3,17.3,30.47,ENE,57,0.0,0.0,39,0.00,,---,0.00,VWS V14.01,2013-01-17 00:34:00,
2013-01-16 16:36:00,40.3,17.3,30.47,ENE,57,0.0,0.0,39,0.00,,---,0.00,VWS V14.01,2013-01-17 00:36:00,
2013-01-16 16:38:00,40.3,17.3,30.47,ENE,57,0.0,0.0,39,0.00,,---,0.00,VWS V14.01,2013-01-17 00:38:00,
2013-01-16 16:39:00,40.3,17.3,30.47,ENE,57,0.0,0.0,39,0.00,,---,0.00,VWS V14.01,2013-01-17 00:39:00,
2013-01-16 16:43:00,40.3,17.3,30.47,NE,55,0.0,0.0,39,0.00,,---,0.00,VWS V14.01,2013-01-17 00:43:00,
2013-01-16 16:44:00,40.3,17.3,30.47,NE,55,0.0,0.0,39,0.00,,---,0.00,VWS V14.01,2013-01-17 00:44:00,
2013-01-16 16:46:00,39.6,17.2,30.47,NE,55,0.0,0.0,40,0.00,,---,0.00,VWS V14.01,2013-01-17 00:46:00,
2013-01-16 16:47:00,39.6,17.2,30.47,NE,55,0.0,0.0,40,0.00,,---,0.00,VWS V14.01,2013-01-17 00:47:00,
2013-01-16 16:49:00,39.4,17.1,30.47,NE,55,0.0,0.0,40,0.00,,---,0.00,VWS V14.01,2013-01-17 00:49:00,
2013-01-16 16:51:00,39.4,17.1,30.47,NE,55,0.0,0.0,40,0.00,,---,0.00,VWS V14.01,2013-01-17 00:51:00,
2013-01-16 16:52:00,39.4,17.1,30.47,NE,55,0.0,0.0,40,0.00,,---,0.00,VWS V14.01,2013-01-17 00:52:00,
2013-01-16 16:54:00,39.2,16.9,30.47,NE,55,0.0,0.0,40,0.00,,---,0.00,VWS V14.01,2013-01-17 00:54:00,
2013-01-16 16:57:00,39.2,16.9,30.47,NE,56,0.0,0.0,40,0.00,,---,0.00,VWS V14.01,2013-01-17 00:57:00,
2013-01-16 16:59:00,39.2,16.9,30.47,NE,56,0.0,0.0,40,0.00,,---,0.00,VWS V14.01,2013-01-17 00:59:00,
2013-01-16 17:00:00,39.2,16.9,30.47,NE,56,0.0,0.0,40,0.00,,---,0.00,VWS V14.01,2013-01-17 01:00:00,
2013-01-16 17:04:00,39.0,17.3,30.47,ENE,58,0.0,0.0,41,0.00,,---,0.00,VWS V14.01,2013-01-17 01:04:00,
2013-01-16 17:06:00,38.8,17.2,30.47,ENE,58,0.0,0.0,41,0.00,,---,0.00,VWS V14.01,2013-01-17 01:06:00,
2013-01-16 17:08:00,38.8,17.2,30.47,ENE,57,0.0,0.0,41,0.00,,---,0.00,VWS V14.01,2013-01-17 01:08:00,
2013-01-16 17:09:00,38.8,17.2,30.47,ENE,57,0.0,0.0,41,0.00,,---,0.00,VWS V14.01,2013-01-17 01:09:00,
2013-01-16 17:10:00,38.8,17.2,30.47,ENE,57,2.2,2.2,41,0.00,,---,0.00,VWS V14.01,2013-01-17 01:10:00,
2013-01-16 17:12:00,38.8,17.2,30.47,ENE,57,0.0,0.0,41,0.00,,---,0.00,VWS V14.01,2013-01-17 01:12:00,
2013-01-16 17:16:00,38.7,17.0,30.47,ENE,57,0.0,0.0,41,0.00,,---,0.00,VWS V14.01,2013-01-17 01:16:00,
2013-01-16 17:17:00,38.7,17.0,30.47,ENE,57,0.0,0.0,41,0.00,,---,0.00,VWS V14.01,2013-01-17 01:17:00,
2013-01-16 17:18:00,38.7,17.0,30.47,ENE,57,0.0,0.0,41,0.00,,---,0.00,VWS V14.01,2013-01-17 01:18:00,
2013-01-16 17:20:00,38.5,17.4,30.45,ENE,57,0.0,0.0,42,0.00,,---,0.00,VWS V14.01,2013-01-17 01:20:00,
2013-01-16 17:22:00,38.5,17.4,30.45,SE,128,0.0,0.0,42,0.00,,---,0.00,VWS V14.01,2013-01-17 01:22:00,
2013-01-16 17:24:00,38.5,17.4,30.45,East,94,0.0,0.0,42,0.00,,---,0.00,VWS V14.01,2013-01-17 01:24:00,
2013-01-16 17:27:00,38.3,17.2,30.45,East,92,0.0,0.0,42,0.00,,---,0.00,VWS V14.01,2013-01-17 01:27:00,
2013-01-16 17:30:00,38.1,17.1,30.45,ESE,117,0.0,0.0,42,0.00,,---,0.00,VWS V14.01,2013-01-17 01:30:00,
2013-01-16 17:31:00,38.1,17.1,30.45,ESE,117,0.0,0.0,42,0.00,,---,0.00,VWS V14.01,2013-01-17 01:31:00,
2013-01-16 17:33:00,38.1,17.1,30.45,ESE,117,0.0,0.0,42,0.00,,---,0.00,VWS V14.01,2013-01-17 01:33:00,
2013-01-16 17:38:00,37.9,17.5,30.45,SE,130,0.0,0.0,43,0.00,,---,0.00,VWS V14.01,2013-01-17 01:38:00,
2013-01-16 17:40:00,37.9,17.5,30.45,SE,130,0.0,0.0,43,0.00,,---,0.00,VWS V14.01,2013-01-17 01:40:00,
2013-01-16 17:42:00,37.9,17.5,30.45,SE,130,0.0,0.0,43,0.00,,---,0.00,VWS V14.01,2013-01-17 01:42:00,
2013-01-16 17:45:00,37.8,17.3,30.45,SE,130,0.0,0.0,43,0.00,,---,0.00,VWS V14.01,2013-01-17 01:45:00,
2013-01-16 17:46:00,37.8,17.3,30.45,SE,130,0.0,0.0,43,0.00,,---,0.00,VWS V14.01,2013-01-17 01:46:00,
2013-01-16 17:49:00,37.6,17.1,30.45,SE,130,0.0,0.0,43,0.00,,---,0.00,VWS V14.01,2013-01-17 01:49:00,
2013-01-16 17:52:00,37.6,17.1,30.45,SE,126,0.0,0.0,43,0.00,,---,0.00,VWS V14.01,2013-01-17 01:52:00,
2013-01-16 17:53:00,37.6,17.1,30.45,SE,126,0.0,0.0,43,0.00,,---,0.00,VWS V14.01,2013-01-17 01:53:00,
2013-01-16 17:56:00,37.4,17.5,30.45,SE,124,0.0,0.0,44,0.00,,---,0.00,VWS V14.01,2013-01-17 01:56:00,
2013-01-16 18:01:00,37.2,17.3,30.45,SE,125,0.0,0.0,44,0.00,,---,0.00,VWS V14.01,2013-01-17 02:01:00,
2013-01-16 18:03:00,37.2,17.3,30.45,SE,124,0.0,0.0,44,0.00,,---,0.00,VWS V14.01,2013-01-17 02:03:00,
2013-01-16 18:06:00,37.0,17.2,30.45,SE,124,0.0,0.0,44,0.00,,---,0.00,VWS V14.01,2013-01-17 02:06:00,
2013-01-16 18:07:00,37.0,17.2,30.45,SE,125,0.0,0.0,44,0.00,,---,0.00,VWS V14.01,2013-01-17 02:07:00,
2013-01-16 18:09:00,37.0,17.2,30.45,SE,125,0.0,0.0,44,0.00,,---,0.00,VWS V14.01,2013-01-17 02:09:00,
2013-01-16 18:13:00,36.9,17.0,30.45,SE,124,0.0,0.0,44,0.00,,---,0.00,VWS V14.01,2013-01-17 02:13:00,
2013-01-16 18:14:00,36.9,17.0,30.45,SE,140,0.0,0.0,44,0.00,,---,0.00,VWS V14.01,2013-01-17 02:14:00,
2013-01-16 18:15:00,36.9,17.0,30.45,SE,140,0.0,0.0,44,0.00,,---,0.00,VWS V14.01,2013-01-17 02:15:00,
2013-01-16 18:19:00,36.9,17.5,30.45,SE,140,0.0,0.0,45,0.00,,---,0.00,VWS V14.01,2013-01-17 02:19:00,
2013-01-16 18:20:00,36.9,17.5,30.45,SE,140,0.0,0.0,45,0.00,,---,0.00,VWS V14.01,2013-01-17 02:20:00,
2013-01-16 18:23:00,36.7,17.4,30.45,SE,140,0.0,0.0,45,0.00,,---,0.00,VWS V14.01,2013-01-17 02:23:00,
2013-01-16 18:25:00,36.7,17.4,30.45,SE,140,0.0,0.0,45,0.00,,---,0.00,VWS V14.01,2013-01-17 02:25:00,
2013-01-16 18:27:00,36.7,17.4,30.45,SE,140,0.0,0.0,45,0.00,,---,0.00,VWS V14.01,2013-01-17 02:27:00,
2013-01-16 18:30:00,36.7,17.4,30.45,SE,140,0.0,0.0,45,0.00,,---,0.00,VWS V14.01,2013-01-17 02:30:00,
2013-01-16 18:31:00,36.7,17.9,30.45,SE,140,0.0,0.0,46,0.00,,---,0.00,VWS V14.01,2013-01-17 02:31:00,
2013-01-16 18:33:00,36.7,17.9,30.45,SE,140,0.0,0.0,46,0.00,,---,0.00,VWS V14.01,2013-01-17 02:33:00,
2013-01-16 18:34:00,36.7,17.9,30.45,SE,140,0.0,0.0,46,0.00,,---,0.00,VWS V14.01,2013-01-17 02:34:00,
2013-01-16 18:36:00,36.7,17.9,30.45,SE,145,0.0,0.0,46,0.00,,---,0.00,VWS V14.01,2013-01-17 02:36:00,
2013-01-16 18:38:00,36.9,18.0,30.45,SE,145,0.0,0.0,46,0.00,,---,0.00,VWS V14.01,2013-01-17 02:38:00,
2013-01-16 18:39:00,36.9,18.0,30.45,SE,145,0.0,0.0,46,0.00,,---,0.00,VWS V14.01,2013-01-17 02:39:00,
2013-01-16 18:41:00,36.9,18.5,30.45,SE,145,0.0,0.0,47,0.00,,---,0.00,VWS V14.01,2013-01-17 02:41:00,
2013-01-16 18:43:00,36.9,18.5,30.45,ESE,103,0.0,0.0,47,0.00,,---,0.00,VWS V14.01,2013-01-17 02:43:00,
2013-01-16 18:44:00,36.9,18.5,30.45,ESE,103,0.0,0.0,47,0.00,,---,0.00,VWS V14.01,2013-01-17 02:44:00,
2013-01-16 18:46:00,36.9,18.5,30.45,ESE,103,0.0,0.0,47,0.00,,---,0.00,VWS V14.01,2013-01-17 02:46:00,
2013-01-16 18:48:00,36.9,18.5,30.45,East,95,0.0,0.0,47,0.00,,---,0.00,VWS V14.01,2013-01-17 02:48:00,
2013-01-16 18:50:00,36.9,18.5,30.45,East,98,0.0,0.0,47,0.00,,---,0.00,VWS V14.01,2013-01-17 02:50:00,
2013-01-16 18:51:00,36.9,18.5,30.45,ESE,102,0.0,0.0,47,0.00,,---,0.00,VWS V14.01,2013-01-17 02:51:00,
2013-01-16 18:54:00,36.9,19.0,30.45,ESE,102,0.0,0.0,48,0.00,,---,0.00,VWS V14.01,2013-01-17 02:54:00,
2013-01-16 18:56:00,36.9,19.0,30.45,ESE,105,0.0,0.0,48,0.00,,---,0.00,VWS V14.01,2013-01-17 02:56:00,
2013-01-16 18:57:00,36.9,19.0,30.45,ESE,105,0.0,0.0,48,0.00,,---,0.00,VWS V14.01,2013-01-17 02:57:00,
2013-01-16 19:00:00,36.9,19.0,30.45,ESE,105,0.0,0.0,48,0.00,,---,0.00,VWS V14.01,2013-01-17 03:00:00,
2013-01-16 19:01:00,36.9,19.0,30.45,ESE,105,0.0,0.0,48,0.00,,---,0.00,VWS V14.01,2013-01-17 03:01:00,
2013-01-16 19:05:00,36.7,18.9,30.45,ESE,105,0.0,0.0,48,0.00,,---,0.00,VWS V14.01,2013-01-17 03:05:00,
2013-01-16 19:06:00,36.7,18.9,30.45,ESE,105,0.0,0.0,48,0.00,,---,0.00,VWS V14.01,2013-01-17 03:06:00,
2013-01-16 19:08:00,36.5,18.7,30.45,ESE,105,0.0,0.0,48,0.00,,---,0.00,VWS V14.01,2013-01-17 03:08:00,
2013-01-16 19:09:00,36.5,18.7,30.45,ESE,105,0.0,0.0,48,0.00,,---,0.00,VWS V14.01,2013-01-17 03:09:00,
2013-01-16 19:10:00,36.3,18.5,30.45,ESE,105,0.0,0.0,48,0.00,,---,0.00,VWS V14.01,2013-01-17 03:10:00,
2013-01-16 19:14:00,36.3,18.5,30.45,ESE,111,0.0,0.0,48,0.00,,---,0.00,VWS V14.01,2013-01-17 03:14:00,
2013-01-16 19:16:00,36.1,18.4,30.45,ESE,111,0.0,0.0,48,0.00,,---,0.00,VWS V14.01,2013-01-17 03:16:00,
2013-01-16 19:19:00,36.1,18.4,30.45,ESE,109,0.0,0.0,48,0.00,,---,0.00,VWS V14.01,2013-01-17 03:19:00,
2013-01-16 19:20:00,36.1,18.4,30.45,ESE,108,0.0,0.0,48,0.00,,---,0.00,VWS V14.01,2013-01-17 03:20:00,
2013-01-16 19:22:00,36.1,18.4,30.45,ESE,108,0.0,0.0,48,0.00,,---,0.00,VWS V14.01,2013-01-17 03:22:00,
2013-01-16 19:23:00,36.1,18.4,30.45,ESE,108,0.0,0.0,48,0.00,,---,0.00,VWS V14.01,2013-01-17 03:23:00,
2013-01-16 19:25:00,36.1,18.4,30.45,ESE,108,0.0,0.0,48,0.00,,---,0.00,VWS V14.01,2013-01-17 03:25:00,
2013-01-16 19:27:00,36.1,18.4,30.45,ESE,108,0.0,0.0,48,0.00,,---,0.00,VWS V14.01,2013-01-17 03:27:00,
2013-01-16 19:31:00,36.0,18.2,30.45,East,86,0.0,0.0,48,0.00,,---,0.00,VWS V14.01,2013-01-17 03:31:00,
2013-01-16 19:32:00,36.0,18.2,30.45,East,86,0.0,0.0,48,0.00,,---,0.00,VWS V14.01,2013-01-17 03:32:00,
2013-01-16 19:37:00,36.0,18.2,30.45,East,86,0.0,0.0,48,0.00,,---,0.00,VWS V14.01,2013-01-17 03:37:00,
2013-01-16 19:38:00,36.0,18.2,30.45,East,86,0.0,0.0,48,0.00,,---,0.00,VWS V14.01,2013-01-17 03:38:00,
2013-01-16 19:41:00,36.0,18.7,30.45,East,86,0.0,0.0,49,0.00,,---,0.00,VWS V14.01,2013-01-17 03:41:00,
2013-01-16 19:43:00,36.0,18.7,30.45,East,86,0.0,0.0,49,0.00,,---,0.00,VWS V14.01,2013-01-17 03:43:00,
2013-01-16 19:44:00,36.0,18.7,30.45,East,86,0.0,0.0,49,0.00,,---,0.00,VWS V14.01,2013-01-17 03:44:00,
2013-01-16 19:45:00,36.0,18.7,30.45,East,86,0.0,0.0,49,0.00,,---,0.00,VWS V14.01,2013-01-17 03:45:00,
2013-01-16 19:46:00,36.0,18.7,30.45,East,86,0.0,0.0,49,0.00,,---,0.00,VWS V14.01,2013-01-17 03:46:00,
2013-01-16 19:51:00,36.0,18.7,30.45,East,86,0.0,0.0,49,0.00,,---,0.00,VWS V14.01,2013-01-17 03:51:00,
2013-01-16 19:52:00,36.0,18.7,30.45,East,86,0.0,0.0,49,0.00,,---,0.00,VWS V14.01,2013-01-17 03:52:00,
2013-01-16 19:53:00,36.0,18.7,30.45,East,86,0.0,0.0,49,0.00,,---,0.00,VWS V14.01,2013-01-17 03:53:00,
2013-01-16 19:58:00,36.0,19.1,30.45,East,86,0.0,0.0,50,0.00,,---,0.00,VWS V14.01,2013-01-17 03:58:00,
2013-01-16 19:59:00,36.0,19.1,30.45,East,86,0.0,0.0,50,0.00,,---,0.00,VWS V14.01,2013-01-17 03:59:00,
2013-01-16 20:01:00,36.0,19.1,30.45,East,86,0.0,0.0,50,0.00,,---,0.00,VWS V14.01,2013-01-17 04:01:00,
2013-01-16 20:06:00,36.0,19.1,30.45,East,86,0.0,0.0,50,0.00,,---,0.00,VWS V14.01,2013-01-17 04:06:00,
2013-01-16 20:07:00,36.0,19.1,30.45,East,86,0.0,0.0,50,0.00,,---,0.00,VWS V14.01,2013-01-17 04:07:00,
2013-01-16 20:08:00,36.0,19.1,30.45,East,86,0.0,0.0,50,0.00,,---,0.00,VWS V14.01,2013-01-17 04:08:00,
2013-01-16 20:11:00,36.0,19.1,30.45,East,86,0.0,0.0,50,0.00,,---,0.00,VWS V14.01,2013-01-17 04:11:00,
2013-01-16 20:12:00,36.1,19.8,30.45,East,86,0.0,0.0,51,0.00,,---,0.00,VWS V14.01,2013-01-17 04:12:00,
2013-01-16 20:14:00,36.1,19.8,30.45,East,86,0.0,0.0,51,0.00,,---,0.00,VWS V14.01,2013-01-17 04:14:00,
2013-01-16 20:17:00,36.1,19.8,30.45,East,86,0.0,0.0,51,0.00,,---,0.00,VWS V14.01,2013-01-17 04:17:00,
2013-01-16 20:18:00,36.1,19.8,30.45,East,86,0.0,0.0,51,0.00,,---,0.00,VWS V14.01,2013-01-17 04:18:00,
2013-01-16 20:21:00,36.1,19.8,30.45,East,86,0.0,0.0,51,0.00,,---,0.00,VWS V14.01,2013-01-17 04:21:00,
2013-01-16 20:24:00,36.1,19.8,30.45,East,86,0.0,0.0,51,0.00,,---,0.00,VWS V14.01,2013-01-17 04:24:00,
2013-01-16 20:25:00,36.1,19.8,30.45,East,86,0.0,0.0,51,0.00,,---,0.00,VWS V14.01,2013-01-17 04:25:00,
2013-01-16 20:29:00,36.1,19.8,30.45,East,86,0.0,0.0,51,0.00,,---,0.00,VWS V14.01,2013-01-17 04:29:00,
2013-01-16 20:30:00,36.1,19.8,30.45,East,86,0.0,0.0,51,0.00,,---,0.00,VWS V14.01,2013-01-17 04:30:00,
2013-01-16 20:31:00,36.1,19.8,30.45,East,86,0.0,0.0,51,0.00,,---,0.00,VWS V14.01,2013-01-17 04:31:00,
2013-01-16 20:36:00,35.8,19.4,30.45,East,86,0.0,0.0,51,0.00,,---,0.00,VWS V14.01,2013-01-17 04:36:00,
2013-01-16 20:37:00,35.8,19.4,30.45,East,86,0.0,0.0,51,0.00,,---,0.00,VWS V14.01,2013-01-17 04:37:00,
2013-01-16 20:39:00,35.8,19.4,30.45,East,86,0.0,0.0,51,0.00,,---,0.00,VWS V14.01,2013-01-17 04:39:00,
2013-01-16 20:40:00,35.8,19.4,30.45,East,86,0.0,0.0,51,0.00,,---,0.00,VWS V14.01,2013-01-17 04:40:00,
2013-01-16 20:41:00,35.8,19.4,30.45,East,86,0.0,0.0,51,0.00,,---,0.00,VWS V14.01,2013-01-17 04:41:00,
2013-01-16 20:46:00,35.8,19.4,30.45,East,86,0.0,0.0,51,0.00,,---,0.00,VWS V14.01,2013-01-17 04:46:00,
2013-01-16 20:47:00,35.8,19.9,30.45,East,86,0.0,0.0,52,0.00,,---,0.00,VWS V14.01,2013-01-17 04:47:00,
2013-01-16 20:48:00,35.8,19.9,30.45,East,86,0.0,0.0,52,0.00,,---,0.00,VWS V14.01,2013-01-17 04:48:00,
2013-01-16 20:52:00,35.6,19.7,30.45,East,86,0.0,0.0,52,0.00,,---,0.00,VWS V14.01,2013-01-17 04:52:00,
2013-01-16 20:53:00,35.6,19.7,30.45,East,86,0.0,0.0,52,0.00,,---,0.00,VWS V14.01,2013-01-17 04:53:00,
2013-01-16 20:56:00,35.6,19.7,30.45,East,86,0.0,0.0,52,0.00,,---,0.00,VWS V14.01,2013-01-17 04:56:00,
2013-01-16 20:59:00,35.8,19.9,30.45,East,86,0.0,0.0,52,0.00,,---,0.00,VWS V14.01,2013-01-17 04:59:00,
2013-01-16 21:01:00,35.8,20.3,30.45,East,86,0.0,0.0,53,0.00,,---,0.00,VWS V14.01,2013-01-17 05:01:00,
2013-01-16 21:02:00,36.0,20.5,30.45,East,86,0.0,0.0,53,0.00,,---,0.00,VWS V14.01,2013-01-17 05:02:00,
2013-01-16 21:05:00,36.0,20.5,30.45,East,86,0.0,0.0,53,0.00,,---,0.00,VWS V14.01,2013-01-17 05:05:00,
2013-01-16 21:07:00,36.0,20.5,30.45,East,86,0.0,0.0,53,0.00,,---,0.00,VWS V14.01,2013-01-17 05:07:00,
2013-01-16 21:09:00,36.1,20.7,30.42,East,86,0.0,0.0,53,0.00,,---,0.00,VWS V14.01,2013-01-17 05:09:00,
2013-01-16 21:11:00,36.1,20.7,30.42,East,86,0.0,0.0,53,0.00,,---,0.00,VWS V14.01,2013-01-17 05:11:00,
2013-01-16 21:15:00,36.0,20.5,30.42,East,86,0.0,0.0,53,0.00,,---,0.00,VWS V14.01,2013-01-17 05:15:00,
2013-01-16 21:16:00,36.0,20.5,30.42,East,86,0.0,0.0,53,0.00,,---,0.00,VWS V14.01,2013-01-17 05:16:00,
2013-01-16 21:18:00,36.0,20.5,30.42,East,86,0.0,0.0,53,0.00,,---,0.00,VWS V14.01,2013-01-17 05:18:00,
2013-01-16 21:21:00,35.8,19.9,30.42,East,86,0.0,0.0,52,0.00,,---,0.00,VWS V14.01,2013-01-17 05:21:00,
2013-01-16 21:23:00,35.8,19.9,30.42,East,86,0.0,0.0,52,0.00,,---,0.00,VWS V14.01,2013-01-17 05:23:00,
2013-01-16 21:24:00,35.8,19.9,30.42,East,86,0.0,0.0,52,0.00,,---,0.00,VWS V14.01,2013-01-17 05:24:00,
2013-01-16 21:25:00,35.6,19.7,30.42,East,86,0.0,0.0,52,0.00,,---,0.00,VWS V14.01,2013-01-17 05:25:00,
2013-01-16 21:30:00,35.6,19.7,30.42,East,86,0.0,0.0,52,0.00,,---,0.00,VWS V14.01,2013-01-17 05:30:00,
2013-01-16 21:31:00,35.4,20.0,30.42,East,86,0.0,0.0,53,0.00,,---,0.00,VWS V14.01,2013-01-17 05:31:00,
2013-01-16 21:32:00,35.4,20.0,30.42,East,86,0.0,0.0,53,0.00,,---,0.00,VWS V14.01,2013-01-17 05:32:00,
2013-01-16 21:37:00,35.4,20.0,30.42,East,86,0.0,0.0,53,0.00,,---,0.00,VWS V14.01,2013-01-17 05:37:00,
2013-01-16 21:38:00,35.4,20.0,30.42,East,86,0.0,0.0,53,0.00,,---,0.00,VWS V14.01,2013-01-17 05:38:00,
2013-01-16 21:39:00,35.4,20.0,30.42,East,86,2.2,2.2,53,0.00,,---,0.00,VWS V14.01,2013-01-17 05:39:00,
2013-01-16 21:42:00,35.4,20.0,30.42,East,86,0.0,0.0,53,0.00,,---,0.00,VWS V14.01,2013-01-17 05:42:00,
2013-01-16 21:45:00,35.4,20.0,30.42,East,86,0.0,0.0,53,0.00,,---,0.00,VWS V14.01,2013-01-17 05:45:00,
2013-01-16 21:47:00,35.4,20.0,30.42,East,86,0.0,0.0,53,0.00,,---,0.00,VWS V14.01,2013-01-17 05:47:00,
2013-01-16 21:50:00,35.4,20.0,30.42,East,86,0.0,0.0,53,0.00,,---,0.00,VWS V14.01,2013-01-17 05:50:00,
2013-01-16 21:54:00,35.4,20.0,30.42,East,86,0.0,0.0,53,0.00,,---,0.00,VWS V14.01,2013-01-17 05:54:00,
2013-01-16 21:56:00,35.4,20.0,30.42,East,86,0.0,0.0,53,0.00,,---,0.00,VWS V14.01,2013-01-17 05:56:00,
2013-01-16 21:57:00,35.4,20.0,30.42,East,86,0.0,0.0,53,0.00,,---,0.00,VWS V14.01,2013-01-17 05:57:00,
2013-01-16 21:58:00,35.4,20.0,30.42,East,86,0.0,0.0,53,0.00,,---,0.00,VWS V14.01,2013-01-17 05:58:00,
2013-01-16 22:00:00,35.4,20.4,30.42,East,86,0.0,0.0,54,0.00,,---,0.00,VWS V14.01,2013-01-17 06:00:00,
2013-01-16 22:03:00,35.4,20.4,30.42,East,86,0.0,0.0,54,0.00,,---,0.00,VWS V14.01,2013-01-17 06:03:00,
2013-01-16 22:04:00,35.4,20.4,30.42,East,86,0.0,0.0,54,0.00,,---,0.00,VWS V14.01,2013-01-17 06:04:00,
2013-01-16 22:06:00,35.4,20.0,30.42,East,86,0.0,0.0,53,0.00,,---,0.00,VWS V14.01,2013-01-17 06:06:00,
2013-01-16 22:07:00,35.4,20.0,30.42,East,86,0.0,0.0,53,0.00,,---,0.00,VWS V14.01,2013-01-17 06:07:00,
2013-01-16 22:11:00,35.4,20.4,30.42,East,86,0.0,0.0,54,0.00,,---,0.00,VWS V14.01,2013-01-17 06:11:00,
2013-01-16 22:14:00,35.2,19.8,30.42,East,86,0.0,0.0,53,0.00,,---,0.00,VWS V14.01,2013-01-17 06:14:00,
2013-01-16 22:15:00,35.2,19.8,30.42,East,86,0.0,0.0,53,0.00,,---,0.00,VWS V14.01,2013-01-17 06:15:00,
2013-01-16 22:19:00,35.2,20.3,30.42,East,86,0.0,0.0,54,0.00,,---,0.00,VWS V14.01,2013-01-17 06:19:00,
2013-01-16 22:20:00,35.2,20.3,30.42,East,86,0.0,0.0,54,0.00,,---,0.00,VWS V14.01,2013-01-17 06:20:00,
2013-01-16 22:22:00,35.2,20.3,30.42,East,86,0.0,0.0,54,0.00,,---,0.00,VWS V14.01,2013-01-17 06:22:00,
2013-01-16 22:23:00,35.2,20.3,30.42,East,86,0.0,0.0,54,0.00,,---,0.00,VWS V14.01,2013-01-17 06:23:00,
2013-01-16 22:28:00,35.1,20.1,30.42,East,86,0.0,0.0,54,0.00,,---,0.00,VWS V14.01,2013-01-17 06:28:00,
2013-01-16 22:29:00,35.1,20.1,30.42,East,86,0.0,0.0,54,0.00,,---,0.00,VWS V14.01,2013-01-17 06:29:00,
2013-01-16 22:31:00,35.1,20.1,30.42,East,86,0.0,0.0,54,0.00,,---,0.00,VWS V14.01,2013-01-17 06:31:00,
2013-01-16 22:33:00,35.1,20.1,30.42,East,86,0.0,0.0,54,0.00,,---,0.00,VWS V14.01,2013-01-17 06:33:00,
2013-01-16 22:35:00,35.2,20.3,30.42,East,86,0.0,0.0,54,0.00,,---,0.00,VWS V14.01,2013-01-17 06:35:00,
2013-01-16 22:36:00,35.2,20.3,30.42,East,86,0.0,0.0,54,0.00,,---,0.00,VWS V14.01,2013-01-17 06:36:00,
2013-01-16 22:38:00,35.2,20.3,30.42,East,86,0.0,0.0,54,0.00,,---,0.00,VWS V14.01,2013-01-17 06:38:00,
2013-01-16 22:39:00,35.2,20.3,30.42,East,86,0.0,0.0,54,0.00,,---,0.00,VWS V14.01,2013-01-17 06:39:00,
2013-01-16 22:41:00,35.2,20.3,30.42,East,86,0.0,0.0,54,0.00,,---,0.00,VWS V14.01,2013-01-17 06:41:00,
2013-01-16 22:44:00,35.2,20.3,30.42,East,86,0.0,0.0,54,0.00,,---,0.00,VWS V14.01,2013-01-17 06:44:00,
2013-01-16 22:45:00,35.2,20.3,30.42,East,86,0.0,0.0,54,0.00,,---,0.00,VWS V14.01,2013-01-17 06:45:00,
2013-01-16 22:47:00,35.1,20.1,30.42,East,86,0.0,0.0,54,0.00,,---,0.00,VWS V14.01,2013-01-17 06:47:00,
2013-01-16 22:52:00,35.2,20.7,30.42,East,86,0.0,0.0,55,0.00,,---,0.00,VWS V14.01,2013-01-17 06:52:00,
2013-01-16 22:53:00,35.2,20.7,30.42,East,86,0.0,0.0,55,0.00,,---,0.00,VWS V14.01,2013-01-17 06:53:00,
2013-01-16 22:56:00,35.2,20.7,30.42,East,86,0.0,0.0,55,0.00,,---,0.00,VWS V14.01,2013-01-17 06:56:00,
2013-01-16 22:59:00,35.1,20.5,30.42,East,86,0.0,0.0,55,0.00,,---,0.00,VWS V14.01,2013-01-17 06:59:00,
2013-01-16 23:00:00,35.1,20.5,30.42,East,86,0.0,0.0,55,0.00,,---,0.00,VWS V14.01,2013-01-17 07:00:00,
2013-01-16 23:01:00,35.1,20.5,30.42,East,86,0.0,0.0,55,0.00,,---,0.00,VWS V14.01,2013-01-17 07:01:00,
2013-01-16 23:03:00,35.1,20.5,30.42,East,86,0.0,0.0,55,0.00,,---,0.00,VWS V14.01,2013-01-17 07:03:00,
2013-01-16 23:09:00,35.1,21.0,30.42,East,86,0.0,0.0,56,0.00,,---,0.00,VWS V14.01,2013-01-17 07:09:00,
2013-01-16 23:11:00,35.1,21.0,30.42,East,86,0.0,0.0,56,0.00,,---,0.00,VWS V14.01,2013-01-17 07:11:00,
2013-01-16 23:14:00,35.1,21.0,30.42,East,86,0.0,0.0,56,0.00,,---,0.00,VWS V14.01,2013-01-17 07:14:00,
2013-01-16 23:15:00,35.1,21.0,30.42,East,86,0.0,0.0,56,0.00,,---,0.00,VWS V14.01,2013-01-17 07:15:00,
2013-01-16 23:16:00,35.1,21.0,30.42,East,86,0.0,0.0,56,0.00,,---,0.00,VWS V14.01,2013-01-17 07:16:00,
2013-01-16 23:20:00,35.1,21.0,30.42,East,86,0.0,0.0,56,0.00,,---,0.00,VWS V14.01,2013-01-17 07:20:00,
2013-01-16 23:21:00,35.1,21.0,30.42,East,86,0.0,0.0,56,0.00,,---,0.00,VWS V14.01,2013-01-17 07:21:00,
2013-01-16 23:26:00,35.1,21.0,30.42,East,86,0.0,0.0,56,0.00,,---,0.00,VWS V14.01,2013-01-17 07:26:00,
2013-01-16 23:27:00,35.1,21.4,30.42,East,86,0.0,0.0,57,0.00,,---,0.00,VWS V14.01,2013-01-17 07:27:00,
2013-01-16 23:28:00,35.1,21.4,30.42,East,86,0.0,0.0,57,0.00,,---,0.00,VWS V14.01,2013-01-17 07:28:00,
2013-01-16 23:30:00,35.2,21.5,30.42,East,86,0.0,0.0,57,0.00,,---,0.00,VWS V14.01,2013-01-17 07:30:00,
2013-01-16 23:33:00,35.2,21.5,30.42,East,86,0.0,0.0,57,0.00,,---,0.00,VWS V14.01,2013-01-17 07:33:00,
2013-01-16 23:35:00,35.1,21.4,30.42,East,86,0.0,0.0,57,0.00,,---,0.00,VWS V14.01,2013-01-17 07:35:00,
2013-01-16 23:36:00,35.1,21.4,30.42,East,86,0.0,0.0,57,0.00,,---,0.00,VWS V14.01,2013-01-17 07:36:00,
2013-01-16 23:37:00,35.1,21.4,30.42,East,86,0.0,0.0,57,0.00,,---,0.00,VWS V14.01,2013-01-17 07:37:00,
2013-01-16 23:41:00,35.2,21.5,30.42,East,86,0.0,0.0,57,0.00,,---,0.00,VWS V14.01,2013-01-17 07:41:00,
2013-01-16 23:42:00,35.2,21.5,30.42,East,86,0.0,0.0,57,0.00,,---,0.00,VWS V14.01,2013-01-17 07:42:00,
2013-01-16 23:47:00,35.4,21.7,30.42,East,86,0.0,0.0,57,0.00,,---,0.00,VWS V14.01,2013-01-17 07:47:00,
2013-01-16 23:48:00,35.2,21.5,30.42,East,86,0.0,0.0,57,0.00,,---,0.00,VWS V14.01,2013-01-17 07:48:00,
2013-01-16 23:50:00,35.2,21.5,30.42,East,86,0.0,0.0,57,0.00,,---,0.00,VWS V14.01,2013-01-17 07:50:00,
2013-01-16 23:55:00,35.2,21.5,30.42,East,86,0.0,0.0,57,0.00,,---,0.00,VWS V14.01,2013-01-17 07:55:00,
2013-01-16 23:57:00,35.2,21.5,30.42,East,86,0.0,0.0,57,0.00,,---,0.00,VWS V14.01,2013-01-17 07:57:00,